QFA5 EGLL-YSSY
Flight info
| Callsign | QFA5 |
|---|---|
| Flight time | N/A |
| Altitude | 35000 |
| Route | DET L6 DVR UL9 KONAN UL607 MATUG GUBAX BOREP ENITA TOVKA BUDOP DINRO N743 UDROS UM859 KARDE UL851 TBN UM11 REBLO M11 LUSAL N701 LARGI B701 KRS A240 INRAK B449 RANAH L750 MERUN L333 KKJ L759 PUT B579 VPL W531 VIH A464 SJ B470 IRPUG M630 JUNHA M635 ATMAP A576 APOMA Y52 VELGI Y105 TARAL Y59 RIVET |
| Aircraft | A359/H-SDE2E3GHIJ3J4J5LM1ORWXY/LB1D1 |
Departure
| Time | N/A |
|---|---|
| Airport | London Heathrow Airport (EGLL) |
Arrival
| Time | 2026-05-04 08:25 |
|---|---|
| Airport | Sydney Kingsford Smith International Airport (YSSY) |
| Time | Latitude | Longitude | Altitude | Speed | Heading |
|---|---|---|---|---|---|
| 2026-05-03 20:15 | 31.90134 | 68.67102 | 36863 ft | 547 kts | 130° |
| 2026-05-03 20:15 | 31.85241 | 68.73984 | 36864 ft | 547 kts | 130° |
| 2026-05-03 20:16 | 31.80355 | 68.80843 | 36863 ft | 547 kts | 130° |
| 2026-05-03 20:16 | 31.75463 | 68.87697 | 36862 ft | 547 kts | 130° |
| 2026-05-03 20:17 | 31.70571 | 68.94540 | 36856 ft | 546 kts | 130° |
| 2026-05-03 20:17 | 31.65677 | 69.01379 | 36853 ft | 546 kts | 130° |
| 2026-05-03 20:18 | 31.60936 | 69.08336 | 36852 ft | 546 kts | 128° |
| 2026-05-03 20:18 | 31.56268 | 69.15376 | 36854 ft | 546 kts | 128° |
| 2026-05-03 20:19 | 31.51612 | 69.22338 | 36846 ft | 546 kts | 129° |
| 2026-05-03 20:19 | 31.46902 | 69.29317 | 36844 ft | 545 kts | 129° |
| 2026-05-03 20:20 | 31.42183 | 69.36280 | 36848 ft | 545 kts | 129° |
| 2026-05-03 20:20 | 31.37456 | 69.43233 | 36842 ft | 545 kts | 129° |
| 2026-05-03 20:20 | 31.34873 | 69.46466 | 36839 ft | 543 kts | 140° |
| 2026-05-03 20:21 | 31.32035 | 69.49380 | 36838 ft | 542 kts | 142° |
| 2026-05-03 20:21 | 31.26205 | 69.54994 | 36837 ft | 542 kts | 143° |
| 2026-05-03 20:22 | 31.20357 | 69.60483 | 36838 ft | 543 kts | 143° |
| 2026-05-03 20:22 | 31.14472 | 69.66013 | 36845 ft | 544 kts | 143° |
| 2026-05-03 20:23 | 31.08580 | 69.71567 | 36834 ft | 544 kts | 143° |
| 2026-05-03 20:23 | 31.02689 | 69.77123 | 36830 ft | 544 kts | 143° |
| 2026-05-03 20:24 | 30.96803 | 69.82667 | 36831 ft | 543 kts | 143° |
| 2026-05-03 20:24 | 30.90951 | 69.88168 | 36826 ft | 544 kts | 143° |
| 2026-05-03 20:25 | 30.85061 | 69.93695 | 36816 ft | 544 kts | 143° |
| 2026-05-03 20:25 | 30.79166 | 69.99218 | 36809 ft | 544 kts | 144° |
| 2026-05-03 20:26 | 30.73270 | 70.04731 | 36799 ft | 544 kts | 144° |
| 2026-05-03 20:26 | 30.67359 | 70.10251 | 36792 ft | 544 kts | 144° |
| 2026-05-03 20:27 | 30.61454 | 70.15756 | 36780 ft | 544 kts | 144° |
| 2026-05-03 20:27 | 30.55552 | 70.21249 | 36772 ft | 544 kts | 144° |
| 2026-05-03 20:28 | 30.49686 | 70.26697 | 36757 ft | 544 kts | 144° |
| 2026-05-03 20:28 | 30.43780 | 70.32178 | 36759 ft | 544 kts | 144° |
| 2026-05-03 20:29 | 30.37865 | 70.37658 | 36720 ft | 544 kts | 144° |
| 2026-05-03 20:29 | 30.31947 | 70.43130 | 36719 ft | 544 kts | 144° |
| 2026-05-03 20:30 | 30.26030 | 70.48594 | 36705 ft | 543 kts | 144° |
| 2026-05-03 20:30 | 30.20127 | 70.54049 | 36701 ft | 543 kts | 144° |
| 2026-05-03 20:31 | 30.14311 | 70.59547 | 36684 ft | 543 kts | 143° |
| 2026-05-03 20:31 | 30.08469 | 70.65101 | 36679 ft | 543 kts | 143° |
| 2026-05-03 20:32 | 30.02627 | 70.70630 | 36673 ft | 542 kts | 144° |
| 2026-05-03 20:32 | 29.96819 | 70.76105 | 36669 ft | 542 kts | 144° |
| 2026-05-03 20:33 | 29.90973 | 70.81602 | 36668 ft | 542 kts | 144° |
| 2026-05-03 20:33 | 29.85125 | 70.87095 | 36664 ft | 542 kts | 144° |
| 2026-05-03 20:34 | 29.79272 | 70.92583 | 36664 ft | 542 kts | 144° |
| 2026-05-03 20:34 | 29.73425 | 70.98058 | 36659 ft | 541 kts | 144° |
| 2026-05-03 20:35 | 29.67580 | 71.03524 | 36656 ft | 541 kts | 144° |
| 2026-05-03 20:35 | 29.61908 | 71.09151 | 36659 ft | 542 kts | 141° |
| 2026-05-03 20:36 | 29.56309 | 71.14983 | 36652 ft | 542 kts | 141° |
| 2026-05-03 20:36 | 29.50738 | 71.20745 | 36652 ft | 541 kts | 142° |
| 2026-05-03 20:37 | 29.45113 | 71.26490 | 36647 ft | 541 kts | 142° |
| 2026-05-03 20:37 | 29.39481 | 71.32211 | 36646 ft | 540 kts | 142° |
| 2026-05-03 20:38 | 29.33846 | 71.37924 | 36643 ft | 540 kts | 142° |
| 2026-05-03 20:38 | 29.28213 | 71.43631 | 36643 ft | 540 kts | 142° |
| 2026-05-03 20:39 | 29.22598 | 71.49365 | 36640 ft | 540 kts | 142° |
| 2026-05-03 20:39 | 29.17035 | 71.55061 | 36640 ft | 540 kts | 142° |
| 2026-05-03 20:40 | 29.11434 | 71.60781 | 36637 ft | 540 kts | 142° |
| 2026-05-03 20:40 | 29.05828 | 71.66491 | 36634 ft | 540 kts | 142° |
| 2026-05-03 20:41 | 29.00215 | 71.72198 | 36634 ft | 539 kts | 142° |
| 2026-05-03 20:41 | 28.94607 | 71.77891 | 36638 ft | 539 kts | 143° |
| 2026-05-03 20:42 | 28.88999 | 71.83576 | 36635 ft | 539 kts | 143° |
| 2026-05-03 20:42 | 28.83427 | 71.89216 | 36634 ft | 538 kts | 143° |
| 2026-05-03 20:43 | 28.77824 | 71.94879 | 36632 ft | 538 kts | 143° |
| 2026-05-03 20:43 | 28.72219 | 72.00534 | 36626 ft | 538 kts | 143° |
| 2026-05-03 20:44 | 28.66598 | 72.06199 | 36629 ft | 538 kts | 143° |
| 2026-05-03 20:44 | 28.61000 | 72.11833 | 36619 ft | 538 kts | 143° |
| 2026-05-03 20:45 | 28.55370 | 72.17489 | 36626 ft | 538 kts | 143° |
| 2026-05-03 20:45 | 28.49840 | 72.23220 | 36624 ft | 542 kts | 137° |
| 2026-05-03 20:46 | 28.45523 | 72.30235 | 36621 ft | 549 kts | 122° |
| 2026-05-03 20:46 | 28.41903 | 72.37898 | 36621 ft | 551 kts | 120° |
| 2026-05-03 20:47 | 28.38386 | 72.45640 | 36624 ft | 551 kts | 120° |
| 2026-05-03 20:47 | 28.34850 | 72.53358 | 36625 ft | 551 kts | 121° |
| 2026-05-03 20:48 | 28.31280 | 72.61060 | 36624 ft | 551 kts | 121° |
| 2026-05-03 20:48 | 28.27727 | 72.68685 | 36628 ft | 551 kts | 121° |
| 2026-05-03 20:49 | 28.24136 | 72.76379 | 36626 ft | 551 kts | 121° |
| 2026-05-03 20:49 | 28.20547 | 72.84053 | 36624 ft | 550 kts | 121° |
| 2026-05-03 20:50 | 28.16952 | 72.91729 | 36632 ft | 550 kts | 121° |
| 2026-05-03 20:50 | 28.13366 | 72.99375 | 36633 ft | 549 kts | 121° |
| 2026-05-03 20:51 | 28.09780 | 73.07006 | 36636 ft | 548 kts | 122° |
| 2026-05-03 20:51 | 28.06197 | 73.14615 | 36637 ft | 547 kts | 122° |
| 2026-05-03 20:52 | 28.02616 | 73.22208 | 36640 ft | 545 kts | 122° |
| 2026-05-03 20:52 | 27.99070 | 73.29712 | 36644 ft | 543 kts | 122° |
| 2026-05-03 20:53 | 27.95506 | 73.37241 | 36646 ft | 541 kts | 122° |
| 2026-05-03 20:53 | 27.91960 | 73.44718 | 36656 ft | 538 kts | 122° |
| 2026-05-03 20:54 | 27.88421 | 73.52166 | 36662 ft | 536 kts | 122° |
| 2026-05-03 20:54 | 27.83143 | 73.63249 | 36669 ft | 535 kts | 122° |
| 2026-05-03 20:55 | 27.79608 | 73.70656 | 36675 ft | 535 kts | 122° |
| 2026-05-03 20:55 | 27.76069 | 73.78059 | 36673 ft | 534 kts | 123° |
| 2026-05-03 20:56 | 27.72539 | 73.85441 | 36672 ft | 534 kts | 122° |
| 2026-05-03 20:56 | 27.69184 | 73.92901 | 36675 ft | 535 kts | 121° |
| 2026-05-03 20:57 | 27.65906 | 74.00418 | 36679 ft | 536 kts | 121° |
| 2026-05-03 20:57 | 27.62587 | 74.07956 | 36679 ft | 536 kts | 121° |
| 2026-05-03 20:58 | 27.59243 | 74.15474 | 36679 ft | 536 kts | 121° |
| 2026-05-03 20:58 | 27.55886 | 74.22985 | 36679 ft | 536 kts | 121° |
| 2026-05-03 20:59 | 27.53096 | 74.29217 | 36681 ft | 536 kts | 122° |
| 2026-05-03 20:59 | 27.49730 | 74.36725 | 36679 ft | 536 kts | 122° |
| 2026-05-03 21:00 | 27.46930 | 74.42962 | 36682 ft | 536 kts | 122° |
| 2026-05-03 21:00 | 27.43015 | 74.51667 | 36684 ft | 536 kts | 122° |
| 2026-05-03 21:01 | 27.39642 | 74.59154 | 36696 ft | 536 kts | 122° |
| 2026-05-03 21:01 | 27.36259 | 74.66648 | 36694 ft | 536 kts | 122° |
| 2026-05-03 21:02 | 27.32891 | 74.74095 | 36697 ft | 537 kts | 122° |
| 2026-05-03 21:02 | 27.29498 | 74.81584 | 36700 ft | 538 kts | 122° |
| 2026-05-03 21:03 | 27.26093 | 74.89087 | 36704 ft | 539 kts | 122° |
| 2026-05-03 21:03 | 27.22681 | 74.96591 | 36708 ft | 539 kts | 122° |
| 2026-05-03 21:04 | 27.19261 | 75.04102 | 36717 ft | 540 kts | 123° |
| 2026-05-03 21:04 | 27.15854 | 75.11569 | 36718 ft | 540 kts | 123° |
| 2026-05-03 21:05 | 27.12424 | 75.19075 | 36719 ft | 540 kts | 123° |
| 2026-05-03 21:05 | 27.08990 | 75.26574 | 36723 ft | 540 kts | 123° |
| 2026-05-03 21:06 | 27.05547 | 75.34081 | 36723 ft | 540 kts | 123° |
| 2026-05-03 21:06 | 27.02110 | 75.41563 | 36722 ft | 540 kts | 123° |
| 2026-05-03 21:07 | 26.98659 | 75.49051 | 36733 ft | 540 kts | 123° |
| 2026-05-03 21:07 | 26.95203 | 75.56539 | 36761 ft | 540 kts | 123° |
| 2026-05-03 21:08 | 26.91744 | 75.64019 | 36773 ft | 541 kts | 123° |
| 2026-05-03 21:08 | 26.88298 | 75.71463 | 36789 ft | 542 kts | 123° |
| 2026-05-03 21:09 | 26.84824 | 75.78955 | 36802 ft | 542 kts | 123° |
| 2026-05-03 21:09 | 26.81334 | 75.86439 | 36801 ft | 542 kts | 124° |
| 2026-05-03 21:10 | 26.77630 | 75.93774 | 36789 ft | 540 kts | 126° |
| 2026-05-03 21:10 | 26.73848 | 76.01042 | 36772 ft | 540 kts | 126° |
| 2026-05-03 21:11 | 26.70091 | 76.08326 | 36761 ft | 541 kts | 126° |
| 2026-05-03 21:11 | 26.66353 | 76.15629 | 36743 ft | 541 kts | 125° |
| 2026-05-03 21:12 | 26.62613 | 76.22943 | 36742 ft | 541 kts | 125° |
| 2026-05-03 21:12 | 26.58873 | 76.30247 | 36744 ft | 541 kts | 125° |
| 2026-05-03 21:13 | 26.55152 | 76.37495 | 36742 ft | 541 kts | 125° |
| 2026-05-03 21:13 | 26.51401 | 76.44787 | 36736 ft | 542 kts | 126° |
| 2026-05-03 21:14 | 26.47639 | 76.52091 | 36729 ft | 542 kts | 126° |
| 2026-05-03 21:14 | 26.43930 | 76.59434 | 36727 ft | 544 kts | 124° |
| 2026-05-03 21:15 | 26.40390 | 76.66921 | 36719 ft | 545 kts | 123° |
| 2026-05-03 21:15 | 26.36866 | 76.74412 | 36713 ft | 545 kts | 123° |
| 2026-05-03 21:16 | 26.33313 | 76.81875 | 36707 ft | 545 kts | 124° |
| 2026-05-03 21:16 | 26.29743 | 76.89316 | 36716 ft | 545 kts | 124° |
| 2026-05-03 21:17 | 26.26756 | 76.95522 | 36707 ft | 545 kts | 124° |
| 2026-05-03 21:17 | 26.22585 | 77.04179 | 36702 ft | 546 kts | 124° |
| 2026-05-03 21:18 | 26.18987 | 77.11635 | 36706 ft | 546 kts | 124° |
| 2026-05-03 21:18 | 26.15380 | 77.19098 | 36702 ft | 546 kts | 124° |
| 2026-05-03 21:19 | 26.11799 | 77.26496 | 36699 ft | 546 kts | 124° |
| 2026-05-03 21:19 | 26.08168 | 77.33937 | 36701 ft | 546 kts | 124° |
| 2026-05-03 21:20 | 26.04535 | 77.41364 | 36705 ft | 547 kts | 124° |
| 2026-05-03 21:20 | 26.00897 | 77.48798 | 36704 ft | 547 kts | 124° |
| 2026-05-03 21:21 | 25.97261 | 77.56219 | 36708 ft | 546 kts | 124° |
| 2026-05-03 21:21 | 25.93646 | 77.63587 | 36709 ft | 546 kts | 124° |
| 2026-05-03 21:22 | 25.90006 | 77.70993 | 36710 ft | 546 kts | 124° |
| 2026-05-03 21:22 | 25.86363 | 77.78394 | 36710 ft | 545 kts | 124° |
| 2026-05-03 21:23 | 25.82713 | 77.85796 | 36713 ft | 545 kts | 124° |
| 2026-05-03 21:23 | 25.79085 | 77.93140 | 36711 ft | 545 kts | 124° |
| 2026-05-03 21:24 | 25.75442 | 78.00505 | 37025 ft | 542 kts | 124° |
| 2026-05-03 21:24 | 25.73630 | 78.04166 | 37262 ft | 540 kts | 124° |
| 2026-05-03 21:24 | 25.71819 | 78.07819 | 37445 ft | 540 kts | 124° |
| 2026-05-03 21:25 | 25.70010 | 78.11464 | 37603 ft | 540 kts | 124° |
| 2026-05-03 21:25 | 25.68202 | 78.15104 | 37748 ft | 539 kts | 124° |
| 2026-05-03 21:25 | 25.66391 | 78.18748 | 37904 ft | 539 kts | 124° |
| 2026-05-03 21:25 | 25.64581 | 78.22386 | 38039 ft | 539 kts | 124° |
| 2026-05-03 21:26 | 25.62773 | 78.26018 | 38184 ft | 539 kts | 124° |
| 2026-05-03 21:26 | 25.60961 | 78.29656 | 38321 ft | 539 kts | 124° |
| 2026-05-03 21:26 | 25.59155 | 78.33299 | 38445 ft | 539 kts | 124° |
| 2026-05-03 21:26 | 25.57366 | 78.36940 | 38557 ft | 538 kts | 124° |
| 2026-05-03 21:27 | 25.55580 | 78.40583 | 38668 ft | 538 kts | 124° |
| 2026-05-03 21:27 | 25.53815 | 78.44185 | 38706 ft | 540 kts | 124° |
| 2026-05-03 21:27 | 25.50211 | 78.51517 | 38701 ft | 543 kts | 124° |
| 2026-05-03 21:28 | 25.46589 | 78.58869 | 38696 ft | 543 kts | 124° |
| 2026-05-03 21:28 | 25.42964 | 78.66213 | 38698 ft | 543 kts | 124° |
| 2026-05-03 21:29 | 25.39360 | 78.73501 | 38705 ft | 543 kts | 124° |
| 2026-05-03 21:29 | 25.35730 | 78.80826 | 38702 ft | 542 kts | 124° |
| 2026-05-03 21:30 | 25.32099 | 78.88144 | 38702 ft | 542 kts | 124° |
| 2026-05-03 21:30 | 25.28465 | 78.95456 | 38700 ft | 542 kts | 124° |
| 2026-05-03 21:31 | 25.24854 | 79.02711 | 38703 ft | 542 kts | 124° |
| 2026-05-03 21:31 | 25.21209 | 79.10021 | 38701 ft | 542 kts | 124° |
| 2026-05-03 21:32 | 25.17588 | 79.17273 | 38704 ft | 541 kts | 124° |
| 2026-05-03 21:32 | 25.13941 | 79.24564 | 38701 ft | 541 kts | 124° |
| 2026-05-03 21:33 | 25.10296 | 79.31840 | 38701 ft | 542 kts | 124° |
| 2026-05-03 21:33 | 25.06645 | 79.39118 | 38707 ft | 542 kts | 124° |
| 2026-05-03 21:34 | 25.02993 | 79.46386 | 38704 ft | 542 kts | 124° |
| 2026-05-03 21:34 | 24.99338 | 79.53650 | 38708 ft | 542 kts | 124° |
| 2026-05-03 21:35 | 24.95698 | 79.60871 | 38708 ft | 541 kts | 124° |
| 2026-05-03 21:35 | 24.92037 | 79.68122 | 38710 ft | 541 kts | 124° |
| 2026-05-03 21:36 | 24.88372 | 79.75370 | 38709 ft | 540 kts | 124° |
| 2026-05-03 21:36 | 24.84710 | 79.82601 | 38708 ft | 540 kts | 124° |
| 2026-05-03 21:37 | 24.81018 | 79.89790 | 38708 ft | 537 kts | 127° |
| 2026-05-03 21:37 | 24.76593 | 79.96260 | 38717 ft | 531 kts | 134° |
| 2026-05-03 21:38 | 24.71895 | 80.02525 | 38719 ft | 530 kts | 135° |
| 2026-05-03 21:38 | 24.67157 | 80.08745 | 38718 ft | 530 kts | 135° |
| 2026-05-03 21:39 | 24.62426 | 80.14969 | 38719 ft | 530 kts | 135° |
| 2026-05-03 21:39 | 24.57709 | 80.21190 | 38728 ft | 530 kts | 135° |
| 2026-05-03 21:40 | 24.52994 | 80.27408 | 38727 ft | 530 kts | 135° |
| 2026-05-03 21:40 | 24.48307 | 80.33584 | 38734 ft | 529 kts | 135° |
| 2026-05-03 21:41 | 24.43578 | 80.39803 | 38737 ft | 529 kts | 135° |
| 2026-05-03 21:41 | 24.38849 | 80.46016 | 38730 ft | 529 kts | 135° |
| 2026-05-03 21:42 | 24.34158 | 80.52168 | 38727 ft | 529 kts | 135° |
| 2026-05-03 21:42 | 24.29442 | 80.58349 | 38733 ft | 528 kts | 135° |
| 2026-05-03 21:43 | 24.24724 | 80.64523 | 38731 ft | 527 kts | 135° |
| 2026-05-03 21:43 | 24.20013 | 80.70680 | 38725 ft | 526 kts | 135° |
| 2026-05-03 21:44 | 24.15338 | 80.76781 | 38730 ft | 525 kts | 135° |
| 2026-05-03 21:44 | 24.10646 | 80.82898 | 38729 ft | 524 kts | 135° |
| 2026-05-03 21:45 | 24.05948 | 80.89014 | 38729 ft | 523 kts | 135° |
| 2026-05-03 21:45 | 24.01268 | 80.95100 | 38728 ft | 522 kts | 135° |
| 2026-05-03 21:46 | 23.96596 | 81.01167 | 38725 ft | 521 kts | 135° |
| 2026-05-03 21:46 | 23.91940 | 81.07206 | 38737 ft | 520 kts | 135° |
| 2026-05-03 21:47 | 23.87265 | 81.13262 | 38731 ft | 519 kts | 135° |
| 2026-05-03 21:47 | 23.82601 | 81.19298 | 38731 ft | 519 kts | 135° |
| 2026-05-03 21:48 | 23.77968 | 81.25286 | 38735 ft | 518 kts | 135° |
| 2026-05-03 21:48 | 23.73312 | 81.31295 | 38732 ft | 518 kts | 135° |
| 2026-05-03 21:49 | 23.68679 | 81.37268 | 38735 ft | 517 kts | 135° |
| 2026-05-03 21:49 | 23.64030 | 81.43254 | 38742 ft | 517 kts | 135° |
| 2026-05-03 21:50 | 23.60129 | 81.48273 | 38744 ft | 517 kts | 135° |
| 2026-05-03 21:50 | 23.55507 | 81.54211 | 38742 ft | 516 kts | 135° |
| 2026-05-03 21:51 | 23.50853 | 81.60184 | 38749 ft | 516 kts | 135° |
| 2026-05-03 21:51 | 23.46192 | 81.66158 | 38750 ft | 516 kts | 135° |
| 2026-05-03 21:52 | 23.41538 | 81.72115 | 38748 ft | 516 kts | 135° |
| 2026-05-03 21:52 | 23.36882 | 81.78069 | 38757 ft | 516 kts | 135° |
| 2026-05-03 21:53 | 23.32261 | 81.83971 | 38763 ft | 515 kts | 135° |
| 2026-05-03 21:53 | 23.27609 | 81.89906 | 38763 ft | 515 kts | 135° |
| 2026-05-03 21:54 | 23.22948 | 81.95845 | 38763 ft | 515 kts | 135° |
| 2026-05-03 21:54 | 23.18293 | 82.01769 | 38769 ft | 514 kts | 135° |
| 2026-05-03 21:55 | 23.13668 | 82.07648 | 38765 ft | 514 kts | 135° |
| 2026-05-03 21:55 | 23.09015 | 82.13558 | 38763 ft | 514 kts | 135° |
| 2026-05-03 21:56 | 23.04375 | 82.19480 | 38765 ft | 515 kts | 134° |
| 2026-05-03 21:56 | 22.99865 | 82.25467 | 38763 ft | 515 kts | 133° |
| 2026-05-03 21:57 | 22.95334 | 82.31524 | 38765 ft | 516 kts | 134° |
| 2026-05-03 21:57 | 22.90797 | 82.37548 | 38758 ft | 516 kts | 134° |
| 2026-05-03 21:58 | 22.86242 | 82.43566 | 38760 ft | 516 kts | 134° |
| 2026-05-03 21:58 | 22.81684 | 82.49574 | 38758 ft | 516 kts | 134° |
| 2026-05-03 21:59 | 22.77113 | 82.55593 | 38754 ft | 517 kts | 134° |
| 2026-05-03 21:59 | 22.72564 | 82.61579 | 38756 ft | 517 kts | 134° |
| 2026-05-03 22:00 | 22.67978 | 82.67606 | 38753 ft | 517 kts | 134° |
| 2026-05-03 22:00 | 22.63426 | 82.73580 | 38756 ft | 517 kts | 134° |
| 2026-05-03 22:01 | 22.58831 | 82.79606 | 38753 ft | 517 kts | 134° |
| 2026-05-03 22:01 | 22.54247 | 82.85609 | 38756 ft | 518 kts | 134° |
| 2026-05-03 22:02 | 22.49661 | 82.91609 | 38759 ft | 517 kts | 134° |
| 2026-05-03 22:02 | 22.45097 | 82.97573 | 38757 ft | 517 kts | 134° |
| 2026-05-03 22:03 | 22.40507 | 83.03562 | 38754 ft | 517 kts | 134° |
| 2026-05-03 22:03 | 22.35918 | 83.09546 | 38754 ft | 516 kts | 134° |
| 2026-05-03 22:04 | 22.31334 | 83.15515 | 38754 ft | 516 kts | 133° |
| 2026-05-03 22:04 | 22.26753 | 83.21474 | 38753 ft | 515 kts | 134° |
| 2026-05-03 22:05 | 22.22198 | 83.27391 | 38761 ft | 515 kts | 133° |
| 2026-05-03 22:05 | 22.17623 | 83.33332 | 38759 ft | 514 kts | 133° |
| 2026-05-03 22:06 | 22.13146 | 83.39357 | 38758 ft | 514 kts | 131° |
| 2026-05-03 22:06 | 22.08717 | 83.45432 | 38757 ft | 514 kts | 131° |
| 2026-05-03 22:07 | 22.04240 | 83.51439 | 38760 ft | 513 kts | 133° |
| 2026-05-03 22:07 | 21.99663 | 83.57270 | 38756 ft | 512 kts | 134° |
| 2026-05-03 22:08 | 21.95053 | 83.63109 | 38767 ft | 511 kts | 134° |
| 2026-05-03 22:08 | 21.90461 | 83.68962 | 38747 ft | 511 kts | 133° |
| 2026-05-03 22:09 | 21.85881 | 83.74819 | 38763 ft | 511 kts | 133° |
| 2026-05-03 22:10 | 21.79012 | 83.83597 | 38746 ft | 510 kts | 133° |
| 2026-05-03 22:10 | 21.74463 | 83.89399 | 38758 ft | 511 kts | 133° |
| 2026-05-03 22:11 | 21.69873 | 83.95248 | 38758 ft | 511 kts | 133° |
| 2026-05-03 22:11 | 21.65292 | 84.01098 | 38741 ft | 511 kts | 133° |
| 2026-05-03 22:12 | 21.60752 | 84.06999 | 38761 ft | 512 kts | 132° |
| 2026-05-03 22:12 | 21.56222 | 84.12903 | 38758 ft | 512 kts | 132° |
| 2026-05-03 22:13 | 21.51683 | 84.18800 | 38765 ft | 513 kts | 132° |
| 2026-05-03 22:13 | 21.47152 | 84.24668 | 38770 ft | 514 kts | 132° |
| 2026-05-03 22:14 | 21.42580 | 84.30581 | 38774 ft | 514 kts | 132° |
| 2026-05-03 22:14 | 21.38004 | 84.36494 | 38777 ft | 515 kts | 132° |
| 2026-05-03 22:15 | 21.33425 | 84.42404 | 38781 ft | 515 kts | 132° |
| 2026-05-03 22:15 | 21.28835 | 84.48323 | 38782 ft | 516 kts | 132° |
| 2026-05-03 22:16 | 21.24242 | 84.54239 | 38780 ft | 516 kts | 131° |
| 2026-05-03 22:16 | 21.19648 | 84.60151 | 38784 ft | 516 kts | 131° |
| 2026-05-03 22:17 | 21.15056 | 84.66054 | 38780 ft | 516 kts | 131° |
| 2026-05-03 22:17 | 21.10488 | 84.71919 | 38784 ft | 516 kts | 131° |
| 2026-05-03 22:18 | 21.05888 | 84.77819 | 38786 ft | 516 kts | 131° |
| 2026-05-03 22:18 | 21.01287 | 84.83714 | 38783 ft | 516 kts | 131° |
| 2026-05-03 22:19 | 20.96683 | 84.89606 | 38782 ft | 515 kts | 131° |
| 2026-05-03 22:19 | 20.92086 | 84.95484 | 38785 ft | 515 kts | 131° |
| 2026-05-03 22:20 | 20.87479 | 85.01368 | 38787 ft | 515 kts | 131° |
| 2026-05-03 22:20 | 20.82882 | 85.07233 | 38786 ft | 515 kts | 131° |
| 2026-05-03 22:21 | 20.78306 | 85.13065 | 38786 ft | 515 kts | 131° |
| 2026-05-03 22:21 | 20.73704 | 85.18924 | 38789 ft | 515 kts | 131° |
| 2026-05-03 22:22 | 20.69101 | 85.24778 | 38787 ft | 515 kts | 131° |
| 2026-05-03 22:22 | 20.64490 | 85.30638 | 38783 ft | 515 kts | 131° |
| 2026-05-03 22:23 | 20.59867 | 85.36505 | 38789 ft | 515 kts | 131° |
| 2026-05-03 22:23 | 20.55246 | 85.42364 | 38787 ft | 515 kts | 131° |
| 2026-05-03 22:24 | 20.50657 | 85.48177 | 38792 ft | 515 kts | 131° |
| 2026-05-03 22:24 | 20.46039 | 85.54021 | 38794 ft | 515 kts | 131° |
| 2026-05-03 22:25 | 20.41435 | 85.59841 | 38795 ft | 515 kts | 131° |
| 2026-05-03 22:25 | 20.36806 | 85.65686 | 38797 ft | 515 kts | 131° |
| 2026-05-03 22:26 | 20.32183 | 85.71517 | 38799 ft | 515 kts | 131° |
| 2026-05-03 22:26 | 20.27553 | 85.77353 | 38803 ft | 515 kts | 131° |
| 2026-05-03 22:27 | 20.22741 | 85.82983 | 38802 ft | 514 kts | 137° |
| 2026-05-03 22:27 | 20.17658 | 85.88278 | 38800 ft | 513 kts | 137° |
| 2026-05-03 22:28 | 20.12502 | 85.93548 | 38797 ft | 513 kts | 138° |
| 2026-05-03 22:28 | 20.07372 | 85.98782 | 38796 ft | 513 kts | 137° |
| 2026-05-03 22:29 | 20.02215 | 86.04052 | 38791 ft | 513 kts | 137° |
| 2026-05-03 22:29 | 19.97065 | 86.09323 | 38789 ft | 513 kts | 137° |
| 2026-05-03 22:30 | 19.91910 | 86.14594 | 38791 ft | 513 kts | 137° |
| 2026-05-03 22:30 | 19.86800 | 86.19891 | 38778 ft | 513 kts | 137° |
| 2026-05-03 22:31 | 19.81779 | 86.25213 | 38788 ft | 511 kts | 137° |
| 2026-05-03 22:31 | 19.76742 | 86.30549 | 38789 ft | 511 kts | 137° |
| 2026-05-03 22:32 | 19.71696 | 86.35870 | 38788 ft | 510 kts | 137° |
| 2026-05-03 22:32 | 19.66652 | 86.41174 | 38789 ft | 510 kts | 137° |
| 2026-05-03 22:33 | 19.61610 | 86.46473 | 38788 ft | 510 kts | 137° |
| 2026-05-03 22:33 | 19.56590 | 86.51713 | 38787 ft | 509 kts | 137° |
| 2026-05-03 22:34 | 19.51519 | 86.56974 | 38788 ft | 509 kts | 137° |
| 2026-05-03 22:34 | 19.46448 | 86.62234 | 38786 ft | 509 kts | 137° |
| 2026-05-03 22:35 | 19.41420 | 86.67451 | 38790 ft | 508 kts | 137° |
| 2026-05-03 22:35 | 19.36366 | 86.72693 | 38793 ft | 508 kts | 137° |
| 2026-05-03 22:36 | 19.31320 | 86.77921 | 38793 ft | 508 kts | 137° |
| 2026-05-03 22:36 | 19.26260 | 86.83158 | 38799 ft | 507 kts | 138° |
| 2026-05-03 22:37 | 19.21233 | 86.88358 | 38794 ft | 507 kts | 138° |
| 2026-05-03 22:37 | 19.16179 | 86.93580 | 38796 ft | 507 kts | 138° |
| 2026-05-03 22:38 | 19.11139 | 86.98782 | 38796 ft | 506 kts | 138° |
| 2026-05-03 22:38 | 19.06949 | 87.03105 | 38795 ft | 506 kts | 138° |
| 2026-05-03 22:39 | 19.01907 | 87.08300 | 38799 ft | 506 kts | 138° |
| 2026-05-03 22:39 | 18.96044 | 87.14337 | 38797 ft | 506 kts | 138° |
| 2026-05-03 22:40 | 18.90990 | 87.19536 | 38801 ft | 506 kts | 138° |
| 2026-05-03 22:40 | 18.86794 | 87.23848 | 38805 ft | 506 kts | 138° |
| 2026-05-03 22:41 | 18.81737 | 87.29042 | 38804 ft | 506 kts | 138° |
| 2026-05-03 22:41 | 18.76718 | 87.34192 | 38805 ft | 506 kts | 138° |
| 2026-05-03 22:42 | 18.71668 | 87.39368 | 38804 ft | 506 kts | 138° |
| 2026-05-03 22:42 | 18.66625 | 87.44534 | 38808 ft | 506 kts | 138° |
| 2026-05-03 22:43 | 18.61577 | 87.49700 | 38809 ft | 505 kts | 138° |
| 2026-05-03 22:43 | 18.56528 | 87.54863 | 38808 ft | 505 kts | 138° |
| 2026-05-03 22:44 | 18.51474 | 87.60026 | 38811 ft | 505 kts | 138° |
| 2026-05-03 22:44 | 18.46426 | 87.65179 | 38815 ft | 505 kts | 138° |
| 2026-05-03 22:45 | 18.41378 | 87.70326 | 38812 ft | 505 kts | 138° |
| 2026-05-03 22:45 | 18.36357 | 87.75443 | 38812 ft | 505 kts | 138° |
| 2026-05-03 22:46 | 18.31306 | 87.80585 | 38812 ft | 505 kts | 138° |
| 2026-05-03 22:46 | 18.26261 | 87.85730 | 38812 ft | 505 kts | 137° |
| 2026-05-03 22:47 | 18.21260 | 87.90919 | 38817 ft | 504 kts | 137° |
| 2026-05-03 22:47 | 18.16273 | 87.96111 | 38815 ft | 504 kts | 137° |
| 2026-05-03 22:48 | 18.11316 | 88.01255 | 38818 ft | 504 kts | 137° |
| 2026-05-03 22:48 | 18.06317 | 88.06430 | 38818 ft | 504 kts | 137° |
| 2026-05-03 22:49 | 18.01320 | 88.11595 | 38820 ft | 504 kts | 137° |
| 2026-05-03 22:49 | 17.96321 | 88.16758 | 38817 ft | 504 kts | 137° |
| 2026-05-03 22:50 | 17.91316 | 88.21923 | 38818 ft | 504 kts | 137° |
| 2026-05-03 22:50 | 17.86318 | 88.27077 | 38817 ft | 504 kts | 137° |
| 2026-05-03 22:51 | 17.81323 | 88.32224 | 38819 ft | 503 kts | 137° |
| 2026-05-03 22:51 | 17.76319 | 88.37376 | 38821 ft | 503 kts | 137° |
| 2026-05-03 22:52 | 17.71319 | 88.42519 | 38819 ft | 504 kts | 137° |
| 2026-05-03 22:52 | 17.66317 | 88.47661 | 38823 ft | 504 kts | 137° |
| 2026-05-03 22:53 | 17.61311 | 88.52802 | 38823 ft | 504 kts | 137° |
| 2026-05-03 22:53 | 17.56324 | 88.57919 | 38820 ft | 504 kts | 137° |
| 2026-05-03 22:54 | 17.51313 | 88.63057 | 38824 ft | 504 kts | 137° |
| 2026-05-03 22:54 | 17.46294 | 88.68199 | 38824 ft | 504 kts | 137° |
| 2026-05-03 22:55 | 17.41280 | 88.73332 | 38821 ft | 504 kts | 137° |
| 2026-05-03 22:55 | 17.36297 | 88.78428 | 38821 ft | 504 kts | 137° |
| 2026-05-03 22:56 | 17.31282 | 88.83554 | 38822 ft | 504 kts | 137° |
| 2026-05-03 22:56 | 17.26263 | 88.88679 | 38819 ft | 504 kts | 137° |
| 2026-05-03 22:57 | 17.21233 | 88.93812 | 38824 ft | 503 kts | 137° |
| 2026-05-03 22:57 | 17.16256 | 88.98918 | 38825 ft | 504 kts | 137° |
| 2026-05-03 22:58 | 17.11279 | 89.04092 | 38822 ft | 504 kts | 137° |
| 2026-05-03 22:58 | 17.06304 | 89.09266 | 38825 ft | 504 kts | 137° |
| 2026-05-03 22:59 | 17.01327 | 89.14427 | 38824 ft | 504 kts | 137° |
| 2026-05-03 22:59 | 16.96346 | 89.19583 | 38823 ft | 504 kts | 137° |
| 2026-05-03 23:00 | 16.91403 | 89.24695 | 38826 ft | 503 kts | 137° |
| 2026-05-03 23:00 | 16.86424 | 89.29839 | 38825 ft | 503 kts | 137° |
| 2026-05-03 23:01 | 16.81441 | 89.34985 | 38827 ft | 503 kts | 137° |
| 2026-05-03 23:01 | 16.76460 | 89.40124 | 38827 ft | 503 kts | 137° |
| 2026-05-03 23:02 | 16.71487 | 89.45251 | 38828 ft | 502 kts | 137° |
| 2026-05-03 23:02 | 16.66519 | 89.50370 | 38831 ft | 502 kts | 137° |
| 2026-05-03 23:03 | 16.61550 | 89.55485 | 38828 ft | 502 kts | 137° |
| 2026-05-03 23:03 | 16.56616 | 89.60561 | 38831 ft | 501 kts | 137° |
| 2026-05-03 23:04 | 16.51652 | 89.65663 | 38829 ft | 501 kts | 137° |
| 2026-05-03 23:04 | 16.46682 | 89.70767 | 38835 ft | 501 kts | 137° |
| 2026-05-03 23:05 | 16.41717 | 89.75863 | 38835 ft | 501 kts | 137° |
| 2026-05-03 23:05 | 16.36750 | 89.80956 | 38838 ft | 501 kts | 137° |
| 2026-05-03 23:06 | 16.31806 | 89.86023 | 38839 ft | 501 kts | 137° |
| 2026-05-03 23:06 | 16.26835 | 89.91113 | 38838 ft | 501 kts | 137° |
| 2026-05-03 23:07 | 16.21859 | 89.96204 | 38838 ft | 501 kts | 137° |
| 2026-05-03 23:07 | 16.16889 | 90.01286 | 38843 ft | 501 kts | 137° |
| 2026-05-03 23:08 | 16.11942 | 90.06340 | 38843 ft | 501 kts | 137° |
| 2026-05-03 23:08 | 16.06963 | 90.11423 | 38841 ft | 501 kts | 137° |
| 2026-05-03 23:09 | 16.01985 | 90.16502 | 38847 ft | 501 kts | 137° |
| 2026-05-03 23:09 | 15.97041 | 90.21623 | 38846 ft | 501 kts | 136° |
| 2026-05-03 23:10 | 15.92164 | 90.26761 | 38844 ft | 502 kts | 136° |
| 2026-05-03 23:10 | 15.87252 | 90.31929 | 38846 ft | 502 kts | 136° |
| 2026-05-03 23:11 | 15.82338 | 90.37077 | 38845 ft | 501 kts | 136° |
| 2026-05-03 23:11 | 15.77447 | 90.42193 | 38843 ft | 501 kts | 136° |
| 2026-05-03 23:12 | 15.72532 | 90.47328 | 38844 ft | 501 kts | 136° |
| 2026-05-03 23:12 | 15.67583 | 90.52494 | 38845 ft | 501 kts | 136° |
| 2026-05-03 23:13 | 15.62687 | 90.57603 | 38849 ft | 501 kts | 136° |
| 2026-05-03 23:13 | 15.57763 | 90.62737 | 38848 ft | 502 kts | 136° |
| 2026-05-03 23:14 | 15.52845 | 90.67862 | 38850 ft | 502 kts | 136° |
| 2026-05-03 23:14 | 15.47917 | 90.72993 | 38850 ft | 502 kts | 136° |
| 2026-05-03 23:15 | 15.42987 | 90.78122 | 38851 ft | 502 kts | 136° |
| 2026-05-03 23:15 | 15.38071 | 90.83234 | 38851 ft | 502 kts | 136° |
| 2026-05-03 23:16 | 15.33164 | 90.88333 | 38849 ft | 502 kts | 136° |
| 2026-05-03 23:16 | 15.28227 | 90.93458 | 38852 ft | 502 kts | 136° |
| 2026-05-03 23:17 | 15.23283 | 90.98587 | 38852 ft | 502 kts | 136° |
| 2026-05-03 23:17 | 15.18344 | 91.03709 | 38853 ft | 502 kts | 136° |
| 2026-05-03 23:18 | 15.13432 | 91.08798 | 38853 ft | 502 kts | 136° |
| 2026-05-03 23:18 | 15.08482 | 91.13923 | 38861 ft | 503 kts | 136° |
| 2026-05-03 23:19 | 15.03537 | 91.19040 | 38861 ft | 503 kts | 136° |
| 2026-05-03 23:19 | 14.98592 | 91.24152 | 38858 ft | 503 kts | 136° |
| 2026-05-03 23:20 | 14.93648 | 91.29260 | 38858 ft | 503 kts | 136° |
| 2026-05-03 23:20 | 14.88694 | 91.34375 | 38862 ft | 503 kts | 136° |
| 2026-05-03 23:21 | 14.83769 | 91.39457 | 38861 ft | 503 kts | 136° |
| 2026-05-03 23:21 | 14.78807 | 91.44573 | 38863 ft | 503 kts | 136° |
| 2026-05-03 23:22 | 14.71357 | 91.52249 | 38861 ft | 504 kts | 136° |
| 2026-05-03 23:22 | 14.66421 | 91.57329 | 38862 ft | 504 kts | 137° |
| 2026-05-03 23:23 | 14.61450 | 91.62442 | 38864 ft | 504 kts | 137° |
| 2026-05-03 23:23 | 14.56483 | 91.67548 | 38861 ft | 504 kts | 137° |
| 2026-05-03 23:24 | 14.51493 | 91.72674 | 38867 ft | 505 kts | 137° |
| 2026-05-03 23:24 | 14.46509 | 91.77789 | 38862 ft | 505 kts | 137° |
| 2026-05-03 23:25 | 14.41531 | 91.82895 | 38875 ft | 505 kts | 137° |
| 2026-05-03 23:25 | 14.36583 | 91.87968 | 38867 ft | 505 kts | 137° |
| 2026-05-03 23:26 | 14.31599 | 91.93075 | 38863 ft | 505 kts | 137° |
| 2026-05-03 23:26 | 14.26616 | 91.98177 | 38861 ft | 504 kts | 137° |
| 2026-05-03 23:27 | 14.21652 | 92.03302 | 38876 ft | 504 kts | 136° |
| 2026-05-03 23:27 | 14.17583 | 92.07606 | 38877 ft | 504 kts | 136° |
| 2026-05-03 23:28 | 14.12693 | 92.12791 | 38862 ft | 504 kts | 136° |
| 2026-05-03 23:28 | 14.07794 | 92.17964 | 38874 ft | 504 kts | 136° |
| 2026-05-03 23:29 | 14.02889 | 92.23125 | 38876 ft | 503 kts | 136° |
| 2026-05-03 23:29 | 13.98014 | 92.28250 | 38876 ft | 503 kts | 136° |
| 2026-05-03 23:30 | 13.93117 | 92.33395 | 38864 ft | 503 kts | 136° |
| 2026-05-03 23:30 | 13.88151 | 92.38458 | 38863 ft | 502 kts | 138° |
| 2026-05-03 23:31 | 13.83120 | 92.43445 | 38867 ft | 502 kts | 138° |
| 2026-05-03 23:31 | 13.78098 | 92.48435 | 38867 ft | 502 kts | 137° |
| 2026-05-03 23:32 | 13.73084 | 92.53444 | 38871 ft | 501 kts | 137° |
| 2026-05-03 23:32 | 13.68113 | 92.58419 | 38873 ft | 501 kts | 137° |
| 2026-05-03 23:33 | 13.63113 | 92.63419 | 38865 ft | 501 kts | 137° |
| 2026-05-03 23:33 | 13.58110 | 92.68419 | 38874 ft | 501 kts | 137° |
| 2026-05-03 23:34 | 13.53111 | 92.73410 | 38875 ft | 501 kts | 137° |
| 2026-05-03 23:34 | 13.48109 | 92.78402 | 38866 ft | 501 kts | 137° |
| 2026-05-03 23:35 | 13.43147 | 92.83351 | 38873 ft | 500 kts | 137° |
| 2026-05-03 23:35 | 13.38149 | 92.88331 | 38874 ft | 500 kts | 137° |
| 2026-05-03 23:36 | 13.33154 | 92.93307 | 38870 ft | 500 kts | 137° |
| 2026-05-03 23:36 | 13.28160 | 92.98278 | 38875 ft | 500 kts | 137° |
| 2026-05-03 23:37 | 13.23160 | 93.03252 | 38872 ft | 500 kts | 137° |
| 2026-05-03 23:37 | 13.18165 | 93.08218 | 38870 ft | 500 kts | 137° |
| 2026-05-03 23:38 | 13.13170 | 93.13182 | 38876 ft | 500 kts | 137° |
| 2026-05-03 23:38 | 13.08205 | 93.18112 | 38869 ft | 500 kts | 137° |
| 2026-05-03 23:39 | 13.03207 | 93.23073 | 38871 ft | 500 kts | 137° |
| 2026-05-03 23:39 | 12.98203 | 93.28036 | 38866 ft | 500 kts | 137° |
| 2026-05-03 23:40 | 12.93205 | 93.32991 | 38870 ft | 500 kts | 137° |
| 2026-05-03 23:40 | 12.88204 | 93.37946 | 38858 ft | 500 kts | 137° |
| 2026-05-03 23:41 | 12.83227 | 93.42873 | 38866 ft | 500 kts | 137° |
| 2026-05-03 23:41 | 12.78220 | 93.47828 | 38865 ft | 500 kts | 137° |
| 2026-05-03 23:42 | 12.73210 | 93.52782 | 38867 ft | 500 kts | 137° |
| 2026-05-03 23:42 | 12.68194 | 93.57740 | 38869 ft | 500 kts | 137° |
| 2026-05-03 23:43 | 12.63224 | 93.62650 | 38871 ft | 500 kts | 137° |
| 2026-05-03 23:43 | 12.58217 | 93.67593 | 38870 ft | 499 kts | 137° |
| 2026-05-03 23:44 | 12.53213 | 93.72531 | 38863 ft | 499 kts | 137° |
| 2026-05-03 23:44 | 12.48199 | 93.77476 | 38868 ft | 499 kts | 137° |
| 2026-05-03 23:45 | 12.43228 | 93.82375 | 38863 ft | 499 kts | 137° |
| 2026-05-03 23:45 | 12.38232 | 93.87296 | 38872 ft | 498 kts | 137° |
| 2026-05-03 23:46 | 12.33233 | 93.92218 | 38868 ft | 498 kts | 137° |
| 2026-05-03 23:46 | 12.28244 | 93.97127 | 38870 ft | 497 kts | 137° |
| 2026-05-03 23:47 | 12.23261 | 94.02027 | 38871 ft | 497 kts | 137° |
| 2026-05-03 23:47 | 12.18326 | 94.06903 | 38871 ft | 496 kts | 137° |
| 2026-05-03 23:48 | 12.13385 | 94.11824 | 38869 ft | 495 kts | 137° |
| 2026-05-03 23:48 | 12.08452 | 94.16736 | 38868 ft | 495 kts | 137° |
| 2026-05-03 23:49 | 12.03525 | 94.21633 | 38871 ft | 494 kts | 137° |
| 2026-05-03 23:49 | 11.98596 | 94.26526 | 38870 ft | 494 kts | 137° |
| 2026-05-03 23:50 | 11.94498 | 94.30591 | 38871 ft | 493 kts | 137° |
| 2026-05-03 23:50 | 11.88741 | 94.36300 | 38869 ft | 493 kts | 137° |
| 2026-05-03 23:51 | 11.83819 | 94.41178 | 38872 ft | 493 kts | 137° |
| 2026-05-03 23:51 | 11.79114 | 94.46230 | 38872 ft | 494 kts | 132° |
| 2026-05-03 23:52 | 11.74692 | 94.51609 | 38866 ft | 494 kts | 131° |
| 2026-05-03 23:52 | 11.70270 | 94.56971 | 38869 ft | 494 kts | 131° |
| 2026-05-03 23:53 | 11.65782 | 94.62290 | 38868 ft | 494 kts | 132° |
| 2026-05-03 23:53 | 11.61304 | 94.67541 | 38868 ft | 493 kts | 132° |
| 2026-05-03 23:54 | 11.56787 | 94.72829 | 38867 ft | 493 kts | 132° |
| 2026-05-03 23:54 | 11.52287 | 94.78098 | 38869 ft | 492 kts | 132° |
| 2026-05-03 23:55 | 11.47794 | 94.83361 | 38868 ft | 491 kts | 132° |
| 2026-05-03 23:55 | 11.43302 | 94.88619 | 38865 ft | 491 kts | 132° |
| 2026-05-03 23:56 | 11.38822 | 94.93861 | 38868 ft | 490 kts | 132° |
| 2026-05-03 23:56 | 11.34341 | 94.99102 | 38864 ft | 489 kts | 132° |
| 2026-05-03 23:57 | 11.29894 | 95.04299 | 38873 ft | 489 kts | 132° |
| 2026-05-03 23:57 | 11.25428 | 95.09517 | 38870 ft | 488 kts | 132° |
| 2026-05-03 23:58 | 11.20969 | 95.14724 | 38868 ft | 488 kts | 132° |
| 2026-05-03 23:58 | 11.16501 | 95.19937 | 38869 ft | 488 kts | 132° |
| 2026-05-03 23:59 | 11.12040 | 95.25141 | 38870 ft | 488 kts | 132° |
| 2026-05-03 23:59 | 11.07573 | 95.30348 | 38871 ft | 488 kts | 132° |
| 2026-05-04 00:00 | 11.03106 | 95.35554 | 38874 ft | 488 kts | 132° |
| 2026-05-04 00:00 | 10.98632 | 95.40764 | 38873 ft | 489 kts | 132° |
| 2026-05-04 00:01 | 10.94183 | 95.45943 | 38872 ft | 489 kts | 132° |
| 2026-05-04 00:01 | 10.89708 | 95.51150 | 38876 ft | 489 kts | 132° |
| 2026-05-04 00:02 | 10.85226 | 95.56362 | 38876 ft | 489 kts | 132° |
| 2026-05-04 00:02 | 10.80752 | 95.61562 | 38874 ft | 489 kts | 132° |
| 2026-05-04 00:03 | 10.76258 | 95.66783 | 38875 ft | 489 kts | 132° |
| 2026-05-04 00:03 | 10.71774 | 95.71991 | 38874 ft | 489 kts | 132° |
| 2026-05-04 00:04 | 10.67284 | 95.77202 | 38875 ft | 489 kts | 132° |
| 2026-05-04 00:04 | 10.62803 | 95.82400 | 38876 ft | 488 kts | 132° |
| 2026-05-04 00:05 | 10.58330 | 95.87587 | 38875 ft | 488 kts | 132° |
| 2026-05-04 00:05 | 10.53887 | 95.92735 | 38879 ft | 487 kts | 132° |
| 2026-05-04 00:06 | 10.49426 | 95.97904 | 38874 ft | 486 kts | 132° |
| 2026-05-04 00:06 | 10.44962 | 96.03072 | 38877 ft | 485 kts | 132° |
| 2026-05-04 00:07 | 10.40514 | 96.08220 | 38872 ft | 484 kts | 132° |
| 2026-05-04 00:07 | 10.36065 | 96.13367 | 38878 ft | 484 kts | 132° |
| 2026-05-04 00:08 | 10.31626 | 96.18499 | 38876 ft | 483 kts | 132° |
| 2026-05-04 00:08 | 10.27212 | 96.23600 | 38874 ft | 483 kts | 132° |
| 2026-05-04 00:09 | 10.22780 | 96.28720 | 38878 ft | 483 kts | 132° |
| 2026-05-04 00:09 | 10.18342 | 96.33844 | 38879 ft | 483 kts | 132° |
| 2026-05-04 00:10 | 10.13901 | 96.38969 | 38877 ft | 483 kts | 132° |
| 2026-05-04 00:10 | 10.09449 | 96.44105 | 38878 ft | 484 kts | 131° |
| 2026-05-04 00:11 | 10.04993 | 96.49242 | 38877 ft | 485 kts | 131° |
| 2026-05-04 00:11 | 10.00503 | 96.54372 | 38878 ft | 486 kts | 134° |
| 2026-05-04 00:12 | 9.95660 | 96.59102 | 38879 ft | 486 kts | 137° |
| 2026-05-04 00:12 | 9.90698 | 96.63774 | 38881 ft | 486 kts | 137° |
| 2026-05-04 00:13 | 9.85709 | 96.68441 | 38881 ft | 487 kts | 137° |
| 2026-05-04 00:13 | 9.80768 | 96.73071 | 38882 ft | 487 kts | 137° |
| 2026-05-04 00:14 | 9.75787 | 96.77745 | 38880 ft | 487 kts | 137° |
| 2026-05-04 00:14 | 9.70803 | 96.82422 | 38880 ft | 488 kts | 137° |
| 2026-05-04 00:15 | 9.66662 | 96.86307 | 38885 ft | 488 kts | 137° |
| 2026-05-04 00:15 | 9.61675 | 96.90983 | 38887 ft | 488 kts | 137° |
| 2026-05-04 00:16 | 9.56689 | 96.95656 | 38882 ft | 488 kts | 137° |
| 2026-05-04 00:16 | 9.51699 | 97.00329 | 38885 ft | 488 kts | 137° |
| 2026-05-04 00:17 | 9.46707 | 97.05004 | 38881 ft | 488 kts | 137° |
| 2026-05-04 00:17 | 9.40910 | 97.10430 | 38885 ft | 488 kts | 137° |
| 2026-05-04 00:18 | 9.36768 | 97.14305 | 38887 ft | 488 kts | 137° |
| 2026-05-04 00:18 | 9.31782 | 97.18968 | 38886 ft | 487 kts | 137° |
| 2026-05-04 00:19 | 9.26793 | 97.23632 | 38886 ft | 487 kts | 137° |
| 2026-05-04 00:19 | 9.21811 | 97.28287 | 38886 ft | 487 kts | 137° |
| 2026-05-04 00:20 | 9.16828 | 97.32942 | 38889 ft | 487 kts | 137° |
| 2026-05-04 00:20 | 9.11882 | 97.37561 | 38890 ft | 487 kts | 137° |
| 2026-05-04 00:21 | 9.06890 | 97.42220 | 38892 ft | 487 kts | 137° |
| 2026-05-04 00:21 | 9.01905 | 97.46870 | 38893 ft | 487 kts | 137° |
| 2026-05-04 00:22 | 8.96946 | 97.51496 | 38890 ft | 487 kts | 137° |
| 2026-05-04 00:22 | 8.91927 | 97.56175 | 38890 ft | 488 kts | 137° |
| 2026-05-04 00:23 | 8.86970 | 97.60795 | 38894 ft | 487 kts | 137° |
| 2026-05-04 00:23 | 8.81979 | 97.65444 | 38896 ft | 487 kts | 137° |
| 2026-05-04 00:24 | 8.76983 | 97.70073 | 38895 ft | 488 kts | 138° |
| 2026-05-04 00:24 | 8.71976 | 97.74709 | 38896 ft | 488 kts | 137° |
| 2026-05-04 00:25 | 8.66976 | 97.79340 | 38898 ft | 488 kts | 138° |
| 2026-05-04 00:25 | 8.62000 | 97.83950 | 38897 ft | 488 kts | 138° |
| 2026-05-04 00:26 | 8.56997 | 97.88584 | 38899 ft | 488 kts | 138° |
| 2026-05-04 00:26 | 8.51993 | 97.93217 | 38895 ft | 488 kts | 138° |
| 2026-05-04 00:27 | 8.46994 | 97.97845 | 38895 ft | 487 kts | 138° |
| 2026-05-04 00:27 | 8.42000 | 98.02464 | 38895 ft | 487 kts | 138° |
| 2026-05-04 00:28 | 8.36985 | 98.07090 | 38896 ft | 487 kts | 138° |
| 2026-05-04 00:28 | 8.31976 | 98.11711 | 38889 ft | 487 kts | 138° |
| 2026-05-04 00:29 | 8.27001 | 98.16302 | 38886 ft | 487 kts | 138° |
| 2026-05-04 00:29 | 8.21996 | 98.20920 | 38885 ft | 487 kts | 138° |
| 2026-05-04 00:30 | 8.16992 | 98.25535 | 38884 ft | 487 kts | 138° |
| 2026-05-04 00:30 | 8.11981 | 98.30155 | 38884 ft | 487 kts | 138° |
| 2026-05-04 00:31 | 8.06867 | 98.34646 | 38886 ft | 487 kts | 141° |
| 2026-05-04 00:31 | 8.01560 | 98.38914 | 38882 ft | 487 kts | 142° |
| 2026-05-04 00:32 | 7.96288 | 98.43157 | 38884 ft | 488 kts | 141° |
| 2026-05-04 00:32 | 7.91011 | 98.47471 | 38886 ft | 488 kts | 141° |
| 2026-05-04 00:33 | 7.83124 | 98.53962 | 38888 ft | 488 kts | 141° |
| 2026-05-04 00:34 | 7.77852 | 98.58301 | 38888 ft | 488 kts | 141° |
| 2026-05-04 00:34 | 7.72591 | 98.62628 | 38891 ft | 488 kts | 141° |
| 2026-05-04 00:35 | 7.67324 | 98.66965 | 38890 ft | 489 kts | 141° |
| 2026-05-04 00:35 | 7.62054 | 98.71295 | 38894 ft | 489 kts | 141° |
| 2026-05-04 00:36 | 7.56811 | 98.75602 | 38899 ft | 489 kts | 141° |
| 2026-05-04 00:36 | 7.51530 | 98.79942 | 38896 ft | 490 kts | 141° |
| 2026-05-04 00:37 | 7.46245 | 98.84285 | 38900 ft | 490 kts | 141° |
| 2026-05-04 00:37 | 7.40956 | 98.88634 | 38900 ft | 490 kts | 141° |
| 2026-05-04 00:38 | 7.35666 | 98.92964 | 38903 ft | 489 kts | 141° |
| 2026-05-04 00:38 | 7.30385 | 98.97287 | 38907 ft | 489 kts | 141° |
| 2026-05-04 00:39 | 7.25133 | 99.01589 | 38906 ft | 489 kts | 141° |
| 2026-05-04 00:39 | 7.19854 | 99.05914 | 38904 ft | 488 kts | 141° |
| 2026-05-04 00:40 | 7.14589 | 99.10225 | 38910 ft | 488 kts | 141° |
| 2026-05-04 00:40 | 7.09316 | 99.14542 | 38907 ft | 488 kts | 141° |
| 2026-05-04 00:41 | 7.04053 | 99.18849 | 38908 ft | 487 kts | 141° |
| 2026-05-04 00:41 | 6.98819 | 99.23132 | 38906 ft | 488 kts | 141° |
| 2026-05-04 00:42 | 6.93551 | 99.27440 | 38908 ft | 488 kts | 141° |
| 2026-05-04 00:42 | 6.88275 | 99.31754 | 38908 ft | 488 kts | 141° |
| 2026-05-04 00:43 | 6.83000 | 99.36065 | 38908 ft | 488 kts | 141° |
| 2026-05-04 00:43 | 6.77747 | 99.40358 | 38913 ft | 489 kts | 141° |
| 2026-05-04 00:44 | 6.72463 | 99.44675 | 38911 ft | 489 kts | 141° |
| 2026-05-04 00:44 | 6.67184 | 99.48986 | 38912 ft | 489 kts | 142° |
| 2026-05-04 00:45 | 6.61895 | 99.53304 | 38912 ft | 489 kts | 141° |
| 2026-05-04 00:45 | 6.56610 | 99.57618 | 38902 ft | 489 kts | 141° |
| 2026-05-04 00:46 | 6.51316 | 99.61938 | 38896 ft | 489 kts | 141° |
| 2026-05-04 00:46 | 6.46059 | 99.66226 | 38891 ft | 489 kts | 141° |
| 2026-05-04 00:47 | 6.40708 | 99.70470 | 38885 ft | 489 kts | 142° |
| 2026-05-04 00:47 | 6.35313 | 99.74662 | 38884 ft | 490 kts | 142° |
| 2026-05-04 00:48 | 6.29935 | 99.78807 | 38884 ft | 490 kts | 143° |
| 2026-05-04 00:48 | 6.24499 | 99.82944 | 38890 ft | 490 kts | 143° |
| 2026-05-04 00:49 | 6.19050 | 99.87103 | 38897 ft | 491 kts | 143° |
| 2026-05-04 00:49 | 6.13611 | 99.91266 | 38908 ft | 491 kts | 143° |
| 2026-05-04 00:50 | 6.08173 | 99.95434 | 38915 ft | 492 kts | 143° |
| 2026-05-04 00:50 | 6.02756 | 99.99583 | 38915 ft | 493 kts | 143° |
| 2026-05-04 00:51 | 5.97288 | 100.03752 | 38916 ft | 493 kts | 143° |
| 2026-05-04 00:51 | 5.91795 | 100.07896 | 38917 ft | 494 kts | 143° |
| 2026-05-04 00:52 | 5.86306 | 100.12043 | 38912 ft | 494 kts | 143° |
| 2026-05-04 00:52 | 5.80845 | 100.16174 | 38912 ft | 494 kts | 143° |
| 2026-05-04 00:53 | 5.75335 | 100.20340 | 38908 ft | 494 kts | 143° |
| 2026-05-04 00:53 | 5.69830 | 100.24503 | 38904 ft | 495 kts | 143° |
| 2026-05-04 00:54 | 5.64329 | 100.28665 | 38899 ft | 495 kts | 143° |
| 2026-05-04 00:54 | 5.58825 | 100.32827 | 38887 ft | 496 kts | 143° |
| 2026-05-04 00:55 | 5.53340 | 100.36974 | 38888 ft | 496 kts | 143° |
| 2026-05-04 00:55 | 5.47812 | 100.41152 | 38885 ft | 497 kts | 143° |
| 2026-05-04 00:56 | 5.42285 | 100.45328 | 38884 ft | 497 kts | 143° |
| 2026-05-04 00:56 | 5.36775 | 100.49491 | 38889 ft | 498 kts | 143° |
| 2026-05-04 00:57 | 5.31233 | 100.53677 | 38898 ft | 498 kts | 143° |
| 2026-05-04 00:57 | 5.25696 | 100.57858 | 38905 ft | 497 kts | 143° |
| 2026-05-04 00:58 | 5.20165 | 100.62033 | 38916 ft | 497 kts | 143° |
| 2026-05-04 00:58 | 5.14660 | 100.66188 | 38919 ft | 497 kts | 143° |
| 2026-05-04 00:59 | 5.09127 | 100.70364 | 38923 ft | 497 kts | 143° |
| 2026-05-04 00:59 | 5.03592 | 100.74539 | 38922 ft | 497 kts | 143° |
| 2026-05-04 01:00 | 4.98082 | 100.78695 | 38923 ft | 498 kts | 143° |
| 2026-05-04 01:00 | 4.92559 | 100.82861 | 39058 ft | 498 kts | 143° |
| 2026-05-04 01:00 | 4.89791 | 100.84949 | 39284 ft | 496 kts | 143° |
| 2026-05-04 01:01 | 4.87034 | 100.87028 | 39490 ft | 495 kts | 143° |
| 2026-05-04 01:01 | 4.84285 | 100.89100 | 39677 ft | 494 kts | 143° |
| 2026-05-04 01:01 | 4.81537 | 100.91171 | 39853 ft | 494 kts | 143° |
| 2026-05-04 01:01 | 4.78797 | 100.93236 | 40007 ft | 493 kts | 143° |
| 2026-05-04 01:02 | 4.76056 | 100.95301 | 40185 ft | 492 kts | 143° |
| 2026-05-04 01:02 | 4.73324 | 100.97360 | 40338 ft | 491 kts | 143° |
| 2026-05-04 01:02 | 4.70591 | 100.99420 | 40489 ft | 490 kts | 143° |
| 2026-05-04 01:02 | 4.67864 | 101.01474 | 40636 ft | 490 kts | 142° |
| 2026-05-04 01:03 | 4.65142 | 101.03525 | 40769 ft | 489 kts | 142° |
| 2026-05-04 01:03 | 4.62415 | 101.05579 | 40885 ft | 490 kts | 142° |
| 2026-05-04 01:03 | 4.59653 | 101.07584 | 40909 ft | 491 kts | 147° |
| 2026-05-04 01:04 | 4.53529 | 101.10476 | 40918 ft | 491 kts | 161° |
| 2026-05-04 01:04 | 4.46999 | 101.12491 | 40915 ft | 491 kts | 163° |
| 2026-05-04 01:05 | 4.40418 | 101.14361 | 40921 ft | 491 kts | 164° |
| 2026-05-04 01:05 | 4.34951 | 101.15917 | 40925 ft | 491 kts | 163° |
| 2026-05-04 01:06 | 4.28369 | 101.17814 | 40938 ft | 491 kts | 163° |
| 2026-05-04 01:06 | 4.21799 | 101.19723 | 40938 ft | 491 kts | 163° |
| 2026-05-04 01:07 | 4.15233 | 101.21631 | 40936 ft | 491 kts | 163° |
| 2026-05-04 01:07 | 4.08675 | 101.23537 | 40935 ft | 491 kts | 163° |
| 2026-05-04 01:08 | 4.02112 | 101.25443 | 40933 ft | 491 kts | 163° |
| 2026-05-04 01:08 | 3.95554 | 101.27347 | 40932 ft | 491 kts | 163° |
| 2026-05-04 01:09 | 3.89038 | 101.29238 | 40932 ft | 490 kts | 163° |
| 2026-05-04 01:09 | 3.82473 | 101.31143 | 40931 ft | 490 kts | 163° |
| 2026-05-04 01:10 | 3.75921 | 101.33064 | 40928 ft | 490 kts | 162° |
| 2026-05-04 01:10 | 3.69381 | 101.35031 | 40932 ft | 490 kts | 162° |
| 2026-05-04 01:11 | 3.62847 | 101.36999 | 40933 ft | 490 kts | 162° |
| 2026-05-04 01:11 | 3.56343 | 101.38951 | 40937 ft | 490 kts | 162° |
| 2026-05-04 01:12 | 3.49811 | 101.40907 | 40929 ft | 490 kts | 162° |
| 2026-05-04 01:12 | 3.43273 | 101.42864 | 40930 ft | 490 kts | 162° |
| 2026-05-04 01:13 | 3.36742 | 101.44819 | 40922 ft | 489 kts | 162° |
| 2026-05-04 01:13 | 3.30344 | 101.47118 | 40919 ft | 488 kts | 155° |
| 2026-05-04 01:14 | 3.24143 | 101.49907 | 40914 ft | 488 kts | 154° |
| 2026-05-04 01:14 | 3.18018 | 101.52750 | 40909 ft | 488 kts | 154° |
| 2026-05-04 01:15 | 3.11849 | 101.55616 | 40911 ft | 488 kts | 154° |
| 2026-05-04 01:15 | 3.05691 | 101.58465 | 40912 ft | 488 kts | 154° |
| 2026-05-04 01:16 | 2.99517 | 101.61314 | 40911 ft | 487 kts | 154° |
| 2026-05-04 01:16 | 2.93397 | 101.64137 | 40912 ft | 487 kts | 154° |
| 2026-05-04 01:17 | 2.87229 | 101.66982 | 40911 ft | 487 kts | 154° |
| 2026-05-04 01:17 | 2.81073 | 101.69822 | 40912 ft | 487 kts | 154° |
| 2026-05-04 01:18 | 2.74920 | 101.72660 | 40913 ft | 486 kts | 154° |
| 2026-05-04 01:18 | 2.69019 | 101.75946 | 40913 ft | 485 kts | 148° |
| 2026-05-04 01:19 | 2.63269 | 101.79508 | 40911 ft | 485 kts | 147° |
| 2026-05-04 01:19 | 2.57591 | 101.83081 | 40912 ft | 485 kts | 147° |
| 2026-05-04 01:20 | 2.51877 | 101.86672 | 40915 ft | 485 kts | 147° |
| 2026-05-04 01:20 | 2.46160 | 101.90255 | 40914 ft | 484 kts | 147° |
| 2026-05-04 01:21 | 2.40447 | 101.93830 | 40920 ft | 485 kts | 147° |
| 2026-05-04 01:21 | 2.34724 | 101.97410 | 40925 ft | 485 kts | 147° |
| 2026-05-04 01:22 | 2.28996 | 102.00993 | 40929 ft | 485 kts | 147° |
| 2026-05-04 01:22 | 2.23246 | 102.04465 | 40934 ft | 486 kts | 148° |
| 2026-05-04 01:23 | 2.17796 | 102.08440 | 40935 ft | 484 kts | 134° |
| 2026-05-04 01:23 | 2.13761 | 102.13785 | 40939 ft | 482 kts | 119° |
| 2026-05-04 01:24 | 2.10552 | 102.19681 | 40936 ft | 483 kts | 117° |
| 2026-05-04 01:24 | 2.07487 | 102.25609 | 40937 ft | 483 kts | 117° |
| 2026-05-04 01:25 | 2.04384 | 102.31571 | 40934 ft | 483 kts | 117° |
| 2026-05-04 01:25 | 2.01253 | 102.37519 | 40933 ft | 483 kts | 117° |
| 2026-05-04 01:26 | 1.98111 | 102.43461 | 40935 ft | 483 kts | 117° |
| 2026-05-04 01:26 | 1.94958 | 102.49396 | 40933 ft | 483 kts | 117° |
| 2026-05-04 01:27 | 1.91804 | 102.55274 | 40931 ft | 482 kts | 118° |
| 2026-05-04 01:27 | 1.88628 | 102.61197 | 40930 ft | 482 kts | 117° |
| 2026-05-04 01:28 | 1.85462 | 102.67112 | 40937 ft | 482 kts | 117° |
| 2026-05-04 01:28 | 1.82296 | 102.73032 | 40936 ft | 482 kts | 117° |
| 2026-05-04 01:29 | 1.79127 | 102.78958 | 40932 ft | 482 kts | 117° |
| 2026-05-04 01:29 | 1.75965 | 102.84871 | 40933 ft | 482 kts | 117° |
| 2026-05-04 01:30 | 1.72825 | 102.90742 | 40931 ft | 482 kts | 117° |
| 2026-05-04 01:30 | 1.69668 | 102.96664 | 40932 ft | 482 kts | 117° |
| 2026-05-04 01:31 | 1.66516 | 103.02580 | 40929 ft | 482 kts | 117° |
| 2026-05-04 01:31 | 1.63360 | 103.08502 | 40926 ft | 482 kts | 117° |
| 2026-05-04 01:32 | 1.60204 | 103.14429 | 40928 ft | 482 kts | 117° |
| 2026-05-04 01:32 | 1.57082 | 103.20315 | 40929 ft | 482 kts | 117° |
| 2026-05-04 01:33 | 1.53936 | 103.26253 | 40927 ft | 483 kts | 117° |
| 2026-05-04 01:33 | 1.50791 | 103.32185 | 40925 ft | 483 kts | 117° |
| 2026-05-04 01:34 | 1.47630 | 103.38106 | 40929 ft | 483 kts | 118° |
| 2026-05-04 01:34 | 1.44420 | 103.44004 | 40929 ft | 483 kts | 118° |
| 2026-05-04 01:35 | 1.41258 | 103.49923 | 40932 ft | 483 kts | 117° |
| 2026-05-04 01:35 | 1.38133 | 103.55818 | 40929 ft | 483 kts | 117° |
| 2026-05-04 01:36 | 1.34987 | 103.61749 | 40931 ft | 483 kts | 117° |
| 2026-05-04 01:36 | 1.31831 | 103.67674 | 40932 ft | 483 kts | 117° |
| 2026-05-04 01:37 | 1.30176 | 103.70743 | 40932 ft | 483 kts | 117° |
| 2026-05-04 01:37 | 1.26985 | 103.76648 | 40939 ft | 482 kts | 117° |
| 2026-05-04 01:38 | 1.23748 | 103.82536 | 40932 ft | 483 kts | 122° |
| 2026-05-04 01:38 | 1.19246 | 103.87418 | 40929 ft | 484 kts | 145° |
| 2026-05-04 01:39 | 1.13586 | 103.91055 | 40933 ft | 485 kts | 144° |
| 2026-05-04 01:39 | 1.08043 | 103.94920 | 40935 ft | 486 kts | 144° |
| 2026-05-04 01:40 | 1.02608 | 103.98943 | 40935 ft | 485 kts | 136° |
| 2026-05-04 01:40 | 0.98347 | 104.04102 | 40937 ft | 482 kts | 119° |
| 2026-05-04 01:41 | 0.95969 | 104.10280 | 40941 ft | 480 kts | 100° |
| 2026-05-04 01:41 | 0.94893 | 104.16864 | 40938 ft | 480 kts | 97° |
| 2026-05-04 01:42 | 0.94076 | 104.23448 | 40935 ft | 481 kts | 96° |
| 2026-05-04 01:42 | 0.93237 | 104.30088 | 40933 ft | 481 kts | 96° |
| 2026-05-04 01:43 | 0.92358 | 104.36716 | 40938 ft | 481 kts | 97° |
| 2026-05-04 01:43 | 0.91458 | 104.43345 | 40937 ft | 481 kts | 97° |
| 2026-05-04 01:44 | 0.90316 | 104.49940 | 40940 ft | 482 kts | 105° |
| 2026-05-04 01:44 | 0.87634 | 104.56085 | 40933 ft | 484 kts | 118° |
| 2026-05-04 01:45 | 0.84263 | 104.61907 | 40941 ft | 485 kts | 120° |
| 2026-05-04 01:45 | 0.79057 | 104.70581 | 40933 ft | 485 kts | 120° |
| 2026-05-04 01:46 | 0.75634 | 104.76334 | 40930 ft | 485 kts | 119° |
| 2026-05-04 01:46 | 0.72203 | 104.82133 | 40931 ft | 485 kts | 119° |
| 2026-05-04 01:47 | 0.68770 | 104.87941 | 40933 ft | 485 kts | 119° |
| 2026-05-04 01:47 | 0.65335 | 104.93749 | 40935 ft | 485 kts | 119° |
| 2026-05-04 01:48 | 0.61901 | 104.99556 | 40935 ft | 485 kts | 119° |
| 2026-05-04 01:48 | 0.58469 | 105.05358 | 40938 ft | 485 kts | 119° |
| 2026-05-04 01:49 | 0.55049 | 105.11139 | 40940 ft | 485 kts | 119° |
| 2026-05-04 01:49 | 0.51613 | 105.16946 | 40940 ft | 485 kts | 119° |
| 2026-05-04 01:50 | 0.48180 | 105.22749 | 40937 ft | 485 kts | 119° |
| 2026-05-04 01:50 | 0.44744 | 105.28563 | 40938 ft | 485 kts | 119° |
| 2026-05-04 01:51 | 0.41254 | 105.34342 | 40942 ft | 486 kts | 123° |
| 2026-05-04 01:51 | 0.37018 | 105.39621 | 40941 ft | 487 kts | 129° |
| 2026-05-04 01:52 | 0.32591 | 105.44701 | 40942 ft | 488 kts | 130° |
| 2026-05-04 01:52 | 0.28095 | 105.49795 | 40941 ft | 488 kts | 130° |
| 2026-05-04 01:53 | 0.23614 | 105.54888 | 40941 ft | 488 kts | 130° |
| 2026-05-04 01:53 | 0.19143 | 105.59990 | 40940 ft | 488 kts | 129° |
| 2026-05-04 01:54 | 0.14667 | 105.65104 | 40941 ft | 488 kts | 129° |
| 2026-05-04 01:54 | 0.10949 | 105.69350 | 40943 ft | 488 kts | 129° |
| 2026-05-04 01:55 | 0.05749 | 105.75289 | 40945 ft | 488 kts | 129° |
| 2026-05-04 01:55 | 0.01273 | 105.80401 | 40942 ft | 488 kts | 129° |
| 2026-05-04 01:56 | -0.02441 | 105.84642 | 40945 ft | 488 kts | 129° |
| 2026-05-04 01:56 | -0.07673 | 105.90617 | 40944 ft | 488 kts | 130° |
| 2026-05-04 01:57 | -0.11391 | 105.94863 | 40943 ft | 488 kts | 130° |
| 2026-05-04 01:57 | -0.15856 | 105.99962 | 40944 ft | 488 kts | 130° |
| 2026-05-04 01:58 | -0.20332 | 106.05073 | 40943 ft | 487 kts | 130° |
| 2026-05-04 01:58 | -0.24799 | 106.10174 | 40947 ft | 487 kts | 130° |
| 2026-05-04 01:59 | -0.29264 | 106.15274 | 40960 ft | 487 kts | 130° |
| 2026-05-04 01:59 | -0.33700 | 106.20340 | 40945 ft | 487 kts | 130° |
| 2026-05-04 02:00 | -0.38162 | 106.25435 | 40943 ft | 487 kts | 130° |
| 2026-05-04 02:00 | -0.42625 | 106.30532 | 40938 ft | 487 kts | 130° |
| 2026-05-04 02:01 | -0.47085 | 106.35627 | 40939 ft | 486 kts | 130° |
| 2026-05-04 02:01 | -0.51512 | 106.40683 | 40956 ft | 486 kts | 130° |
| 2026-05-04 02:02 | -0.55967 | 106.45772 | 40941 ft | 486 kts | 130° |
| 2026-05-04 02:02 | -0.60420 | 106.50857 | 40943 ft | 486 kts | 130° |
| 2026-05-04 02:03 | -0.64880 | 106.55939 | 40956 ft | 486 kts | 130° |
| 2026-05-04 02:03 | -0.69377 | 106.60995 | 40941 ft | 486 kts | 130° |
| 2026-05-04 02:04 | -0.73842 | 106.66009 | 40955 ft | 485 kts | 130° |
| 2026-05-04 02:04 | -0.78325 | 106.71055 | 40941 ft | 485 kts | 130° |
| 2026-05-04 02:05 | -0.82800 | 106.76100 | 40957 ft | 485 kts | 130° |
| 2026-05-04 02:05 | -0.87281 | 106.81152 | 40940 ft | 485 kts | 130° |
| 2026-05-04 02:06 | -0.91756 | 106.86198 | 40956 ft | 485 kts | 130° |
| 2026-05-04 02:06 | -0.96230 | 106.91242 | 40939 ft | 485 kts | 130° |
| 2026-05-04 02:07 | -1.00673 | 106.96252 | 40963 ft | 484 kts | 130° |
| 2026-05-04 02:07 | -1.05153 | 107.01302 | 40945 ft | 484 kts | 130° |
| 2026-05-04 02:08 | -1.09628 | 107.06348 | 40957 ft | 484 kts | 130° |
| 2026-05-04 02:08 | -1.14096 | 107.11387 | 40939 ft | 485 kts | 130° |
| 2026-05-04 02:09 | -1.18563 | 107.16424 | 40957 ft | 484 kts | 130° |
| 2026-05-04 02:09 | -1.23039 | 107.21471 | 40943 ft | 485 kts | 130° |
| 2026-05-04 02:10 | -1.27485 | 107.26486 | 40954 ft | 485 kts | 130° |
| 2026-05-04 02:10 | -1.31953 | 107.31525 | 40947 ft | 485 kts | 130° |
| 2026-05-04 02:11 | -1.36429 | 107.36574 | 40947 ft | 485 kts | 130° |
| 2026-05-04 02:11 | -1.40866 | 107.41648 | 40945 ft | 485 kts | 130° |
| 2026-05-04 02:12 | -1.45259 | 107.46764 | 40958 ft | 485 kts | 129° |
| 2026-05-04 02:12 | -1.49640 | 107.51864 | 40940 ft | 485 kts | 130° |
| 2026-05-04 02:13 | -1.54049 | 107.56980 | 40948 ft | 485 kts | 130° |
| 2026-05-04 02:13 | -1.58460 | 107.62090 | 40950 ft | 485 kts | 130° |
| 2026-05-04 02:14 | -1.62846 | 107.67172 | 40963 ft | 484 kts | 129° |
| 2026-05-04 02:14 | -1.67251 | 107.72277 | 40945 ft | 484 kts | 129° |
| 2026-05-04 02:15 | -1.71658 | 107.77385 | 40948 ft | 484 kts | 130° |
| 2026-05-04 02:15 | -1.76062 | 107.82490 | 40952 ft | 484 kts | 130° |
| 2026-05-04 02:16 | -1.80436 | 107.87560 | 40950 ft | 484 kts | 130° |
| 2026-05-04 02:16 | -1.84840 | 107.92666 | 40949 ft | 484 kts | 130° |
| 2026-05-04 02:17 | -1.89240 | 107.97767 | 40946 ft | 484 kts | 129° |
| 2026-05-04 02:17 | -1.93636 | 108.02865 | 40947 ft | 484 kts | 129° |
| 2026-05-04 02:18 | -1.98007 | 108.07933 | 40948 ft | 484 kts | 129° |
| 2026-05-04 02:18 | -2.02398 | 108.13026 | 40946 ft | 484 kts | 129° |
| 2026-05-04 02:19 | -2.06800 | 108.18136 | 40945 ft | 483 kts | 129° |
| 2026-05-04 02:19 | -2.11193 | 108.23229 | 40944 ft | 483 kts | 130° |
| 2026-05-04 02:20 | -2.15564 | 108.28290 | 40947 ft | 483 kts | 130° |
| 2026-05-04 02:20 | -2.19952 | 108.33374 | 40944 ft | 483 kts | 130° |
| 2026-05-04 02:21 | -2.24345 | 108.38466 | 40943 ft | 483 kts | 130° |
| 2026-05-04 02:21 | -2.28727 | 108.43546 | 40944 ft | 483 kts | 129° |
| 2026-05-04 02:22 | -2.33114 | 108.48634 | 40947 ft | 483 kts | 130° |
| 2026-05-04 02:22 | -2.37508 | 108.53729 | 40945 ft | 483 kts | 130° |
| 2026-05-04 02:23 | -2.41877 | 108.58796 | 40958 ft | 483 kts | 130° |
| 2026-05-04 02:23 | -2.46269 | 108.63891 | 40942 ft | 483 kts | 130° |
| 2026-05-04 02:24 | -2.50661 | 108.68989 | 40960 ft | 484 kts | 130° |
| 2026-05-04 02:24 | -2.55068 | 108.74084 | 40943 ft | 484 kts | 130° |
| 2026-05-04 02:25 | -2.59451 | 108.79142 | 40960 ft | 484 kts | 130° |
| 2026-05-04 02:25 | -2.63859 | 108.84232 | 40942 ft | 484 kts | 130° |
| 2026-05-04 02:26 | -2.68268 | 108.89330 | 40958 ft | 484 kts | 130° |
| 2026-05-04 02:26 | -2.72678 | 108.94429 | 40940 ft | 484 kts | 130° |
| 2026-05-04 02:27 | -2.77091 | 108.99533 | 40941 ft | 484 kts | 130° |
| 2026-05-04 02:27 | -2.81469 | 109.04596 | 40957 ft | 484 kts | 130° |
| 2026-05-04 02:28 | -2.85879 | 109.09698 | 40937 ft | 484 kts | 130° |
| 2026-05-04 02:28 | -2.90296 | 109.14810 | 40954 ft | 484 kts | 130° |
| 2026-05-04 02:29 | -2.94697 | 109.19923 | 40939 ft | 484 kts | 130° |
| 2026-05-04 02:29 | -2.99093 | 109.25031 | 40949 ft | 484 kts | 130° |
| 2026-05-04 02:30 | -3.03461 | 109.30106 | 40941 ft | 484 kts | 130° |
| 2026-05-04 02:30 | -3.07863 | 109.35222 | 40937 ft | 484 kts | 130° |
| 2026-05-04 02:31 | -3.12267 | 109.40340 | 40957 ft | 484 kts | 130° |
| 2026-05-04 02:31 | -3.16660 | 109.45447 | 40939 ft | 484 kts | 130° |
| 2026-05-04 02:32 | -3.21021 | 109.50517 | 40947 ft | 483 kts | 130° |
| 2026-05-04 02:32 | -3.25409 | 109.55619 | 40954 ft | 483 kts | 130° |
| 2026-05-04 02:33 | -3.29797 | 109.60721 | 40938 ft | 483 kts | 130° |
| 2026-05-04 02:33 | -3.34183 | 109.65822 | 40954 ft | 483 kts | 130° |
| 2026-05-04 02:34 | -3.38566 | 109.70921 | 40933 ft | 483 kts | 130° |
| 2026-05-04 02:34 | -3.42944 | 109.76014 | 40946 ft | 483 kts | 130° |
| 2026-05-04 02:35 | -3.47320 | 109.81106 | 40935 ft | 483 kts | 130° |
| 2026-05-04 02:35 | -3.51670 | 109.86168 | 40948 ft | 482 kts | 130° |
| 2026-05-04 02:36 | -3.56044 | 109.91260 | 40950 ft | 482 kts | 130° |
| 2026-05-04 02:36 | -3.60430 | 109.96366 | 40948 ft | 482 kts | 130° |
| 2026-05-04 02:37 | -3.64798 | 110.01451 | 40947 ft | 482 kts | 130° |
| 2026-05-04 02:37 | -3.69137 | 110.06504 | 40943 ft | 481 kts | 130° |
| 2026-05-04 02:38 | -3.73511 | 110.11599 | 40950 ft | 482 kts | 130° |
| 2026-05-04 02:38 | -3.77885 | 110.16694 | 40951 ft | 481 kts | 130° |
| 2026-05-04 02:39 | -3.82254 | 110.21784 | 40944 ft | 481 kts | 130° |
| 2026-05-04 02:39 | -3.86617 | 110.26868 | 40944 ft | 481 kts | 130° |
| 2026-05-04 02:40 | -3.90949 | 110.31918 | 40947 ft | 481 kts | 130° |
| 2026-05-04 02:40 | -3.95308 | 110.36999 | 40945 ft | 480 kts | 130° |
| 2026-05-04 02:41 | -3.99572 | 110.42142 | 40944 ft | 480 kts | 127° |
| 2026-05-04 02:41 | -4.03621 | 110.47469 | 40947 ft | 480 kts | 127° |
| 2026-05-04 02:42 | -4.07655 | 110.52806 | 40948 ft | 480 kts | 127° |
| 2026-05-04 02:42 | -4.11723 | 110.58115 | 40944 ft | 480 kts | 127° |
| 2026-05-04 02:43 | -4.15814 | 110.63417 | 40946 ft | 481 kts | 127° |
| 2026-05-04 02:43 | -4.19913 | 110.68723 | 40946 ft | 481 kts | 127° |
| 2026-05-04 02:44 | -4.23986 | 110.73999 | 40950 ft | 482 kts | 127° |
| 2026-05-04 02:44 | -4.27421 | 110.78452 | 40951 ft | 482 kts | 127° |
| 2026-05-04 02:45 | -4.31522 | 110.83770 | 40947 ft | 482 kts | 127° |
| 2026-05-04 02:45 | -4.36285 | 110.89947 | 40949 ft | 482 kts | 127° |
| 2026-05-04 02:46 | -4.39695 | 110.94371 | 40952 ft | 482 kts | 127° |
| 2026-05-04 02:46 | -4.43794 | 110.99689 | 40952 ft | 482 kts | 127° |
| 2026-05-04 02:47 | -4.47898 | 111.05014 | 40948 ft | 483 kts | 127° |
| 2026-05-04 02:47 | -4.52005 | 111.10344 | 40945 ft | 483 kts | 127° |
| 2026-05-04 02:48 | -4.56117 | 111.15684 | 40947 ft | 483 kts | 127° |
| 2026-05-04 02:48 | -4.60231 | 111.21025 | 40948 ft | 483 kts | 127° |
| 2026-05-04 02:49 | -4.64318 | 111.26333 | 40942 ft | 484 kts | 127° |
| 2026-05-04 02:49 | -4.68452 | 111.31661 | 40944 ft | 484 kts | 127° |
| 2026-05-04 02:50 | -4.72590 | 111.36987 | 40948 ft | 484 kts | 127° |
| 2026-05-04 02:50 | -4.76729 | 111.42325 | 40943 ft | 484 kts | 127° |
| 2026-05-04 02:51 | -4.80865 | 111.47664 | 40947 ft | 484 kts | 127° |
| 2026-05-04 02:51 | -4.85001 | 111.53006 | 40944 ft | 485 kts | 127° |
| 2026-05-04 02:52 | -4.89111 | 111.58314 | 40947 ft | 485 kts | 127° |
| 2026-05-04 02:52 | -4.93247 | 111.63657 | 40949 ft | 485 kts | 127° |
| 2026-05-04 02:53 | -4.97387 | 111.69006 | 40942 ft | 485 kts | 127° |
| 2026-05-04 02:53 | -5.01535 | 111.74368 | 40945 ft | 485 kts | 127° |
| 2026-05-04 02:54 | -5.05674 | 111.79719 | 40948 ft | 486 kts | 127° |
| 2026-05-04 02:54 | -5.09819 | 111.85078 | 40942 ft | 486 kts | 127° |
| 2026-05-04 02:55 | -5.16041 | 111.93127 | 40946 ft | 487 kts | 127° |
| 2026-05-04 02:56 | -5.20165 | 111.98462 | 40946 ft | 487 kts | 127° |
| 2026-05-04 02:56 | -5.24326 | 112.03846 | 40945 ft | 488 kts | 127° |
| 2026-05-04 02:57 | -5.28486 | 112.09232 | 40945 ft | 488 kts | 127° |
| 2026-05-04 02:57 | -5.32649 | 112.14624 | 40948 ft | 489 kts | 127° |
| 2026-05-04 02:58 | -5.36819 | 112.20024 | 40946 ft | 489 kts | 127° |
| 2026-05-04 02:58 | -5.40998 | 112.25437 | 40946 ft | 490 kts | 127° |
| 2026-05-04 02:59 | -5.45173 | 112.30849 | 40929 ft | 490 kts | 127° |
| 2026-05-04 02:59 | -5.49328 | 112.36233 | 40931 ft | 491 kts | 127° |
| 2026-05-04 03:00 | -5.53502 | 112.41645 | 40949 ft | 491 kts | 127° |
| 2026-05-04 03:00 | -5.57689 | 112.47075 | 40934 ft | 491 kts | 127° |
| 2026-05-04 03:01 | -5.61877 | 112.52507 | 40951 ft | 491 kts | 127° |
| 2026-05-04 03:01 | -5.66040 | 112.57908 | 40932 ft | 492 kts | 127° |
| 2026-05-04 03:02 | -5.70236 | 112.63353 | 40949 ft | 492 kts | 127° |
| 2026-05-04 03:02 | -5.74420 | 112.68785 | 40947 ft | 492 kts | 127° |
| 2026-05-04 03:03 | -5.78615 | 112.74232 | 40947 ft | 492 kts | 127° |
| 2026-05-04 03:03 | -5.82789 | 112.79653 | 40943 ft | 493 kts | 127° |
| 2026-05-04 03:04 | -5.86988 | 112.85109 | 40948 ft | 493 kts | 127° |
| 2026-05-04 03:04 | -5.91184 | 112.90561 | 40949 ft | 493 kts | 127° |
| 2026-05-04 03:05 | -5.95377 | 112.96012 | 40941 ft | 493 kts | 127° |
| 2026-05-04 03:05 | -5.99548 | 113.01436 | 40945 ft | 493 kts | 127° |
| 2026-05-04 03:06 | -6.03743 | 113.06892 | 40945 ft | 492 kts | 127° |
| 2026-05-04 03:06 | -6.07928 | 113.12337 | 40941 ft | 492 kts | 127° |
| 2026-05-04 03:07 | -6.12115 | 113.17785 | 40942 ft | 492 kts | 127° |
| 2026-05-04 03:07 | -6.16260 | 113.23181 | 40923 ft | 491 kts | 127° |
| 2026-05-04 03:08 | -6.20440 | 113.28625 | 40937 ft | 491 kts | 127° |
| 2026-05-04 03:08 | -6.24772 | 113.33933 | 40938 ft | 491 kts | 135° |
| 2026-05-04 03:09 | -6.30055 | 113.38280 | 40932 ft | 490 kts | 143° |
| 2026-05-04 03:09 | -6.35580 | 113.42293 | 40926 ft | 490 kts | 144° |
| 2026-05-04 03:10 | -6.41140 | 113.46258 | 40927 ft | 490 kts | 144° |
| 2026-05-04 03:10 | -6.46671 | 113.50225 | 40924 ft | 490 kts | 144° |
| 2026-05-04 03:11 | -6.52207 | 113.54216 | 40912 ft | 489 kts | 144° |
| 2026-05-04 03:11 | -6.57704 | 113.58189 | 40928 ft | 489 kts | 144° |
| 2026-05-04 03:12 | -6.63239 | 113.62189 | 40913 ft | 489 kts | 144° |
| 2026-05-04 03:12 | -6.68771 | 113.66188 | 40925 ft | 489 kts | 144° |
| 2026-05-04 03:13 | -6.74296 | 113.70183 | 40927 ft | 489 kts | 144° |
| 2026-05-04 03:13 | -6.79817 | 113.74175 | 40911 ft | 489 kts | 144° |
| 2026-05-04 03:14 | -6.85348 | 113.78177 | 40915 ft | 489 kts | 144° |
| 2026-05-04 03:14 | -6.90838 | 113.82150 | 40932 ft | 488 kts | 144° |
| 2026-05-04 03:15 | -6.96357 | 113.86145 | 40929 ft | 488 kts | 144° |
| 2026-05-04 03:15 | -7.01876 | 113.90143 | 40927 ft | 488 kts | 144° |
| 2026-05-04 03:16 | -7.07393 | 113.94146 | 40935 ft | 488 kts | 144° |
| 2026-05-04 03:16 | -7.12883 | 113.98124 | 40920 ft | 488 kts | 144° |
| 2026-05-04 03:17 | -7.18395 | 114.02121 | 40917 ft | 488 kts | 144° |
| 2026-05-04 03:17 | -7.23909 | 114.06122 | 40930 ft | 488 kts | 144° |
| 2026-05-04 03:18 | -7.29420 | 114.10123 | 40913 ft | 488 kts | 145° |
| 2026-05-04 03:18 | -7.34933 | 114.14126 | 40926 ft | 488 kts | 144° |
| 2026-05-04 03:19 | -7.40410 | 114.18104 | 40921 ft | 488 kts | 144° |
| 2026-05-04 03:19 | -7.45927 | 114.22112 | 40924 ft | 488 kts | 144° |
| 2026-05-04 03:20 | -7.51450 | 114.26127 | 40921 ft | 488 kts | 144° |
| 2026-05-04 03:20 | -7.56934 | 114.30114 | 40926 ft | 488 kts | 145° |
| 2026-05-04 03:21 | -7.62441 | 114.34120 | 40929 ft | 488 kts | 145° |
| 2026-05-04 03:21 | -7.67952 | 114.38129 | 40931 ft | 488 kts | 145° |
| 2026-05-04 03:22 | -7.73465 | 114.42141 | 40938 ft | 488 kts | 145° |
| 2026-05-04 03:22 | -7.78976 | 114.46153 | 40938 ft | 488 kts | 145° |
| 2026-05-04 03:23 | -7.84473 | 114.50156 | 40937 ft | 487 kts | 145° |
| 2026-05-04 03:23 | -7.89974 | 114.54163 | 40941 ft | 487 kts | 145° |
| 2026-05-04 03:24 | -7.95430 | 114.58139 | 40944 ft | 487 kts | 145° |
| 2026-05-04 03:24 | -8.00920 | 114.62141 | 40940 ft | 486 kts | 145° |
| 2026-05-04 03:25 | -8.06399 | 114.66137 | 40945 ft | 486 kts | 145° |
| 2026-05-04 03:25 | -8.11884 | 114.70138 | 40947 ft | 486 kts | 145° |
| 2026-05-04 03:26 | -8.17358 | 114.74132 | 40949 ft | 486 kts | 145° |
| 2026-05-04 03:26 | -8.22842 | 114.78135 | 40947 ft | 486 kts | 145° |
| 2026-05-04 03:27 | -8.28329 | 114.82142 | 40953 ft | 486 kts | 145° |
| 2026-05-04 03:27 | -8.33772 | 114.86118 | 40954 ft | 486 kts | 145° |
| 2026-05-04 03:28 | -8.39242 | 114.90115 | 40958 ft | 486 kts | 145° |
| 2026-05-04 03:28 | -8.44734 | 114.94129 | 40958 ft | 486 kts | 145° |
| 2026-05-04 03:29 | -8.50200 | 114.98127 | 40955 ft | 486 kts | 146° |
| 2026-05-04 03:29 | -8.55683 | 115.02138 | 40947 ft | 486 kts | 146° |
| 2026-05-04 03:30 | -8.61162 | 115.06146 | 40945 ft | 486 kts | 145° |
| 2026-05-04 03:30 | -8.66602 | 115.10129 | 40941 ft | 486 kts | 145° |
| 2026-05-04 03:31 | -8.72087 | 115.14147 | 40938 ft | 486 kts | 145° |
| 2026-05-04 03:31 | -8.77339 | 115.18480 | 40938 ft | 488 kts | 139° |
| 2026-05-04 03:32 | -8.82338 | 115.23110 | 40938 ft | 488 kts | 138° |
| 2026-05-04 03:32 | -8.87309 | 115.27796 | 40940 ft | 488 kts | 138° |
| 2026-05-04 03:33 | -8.91439 | 115.31691 | 40944 ft | 489 kts | 138° |
| 2026-05-04 03:33 | -8.97244 | 115.37153 | 40947 ft | 489 kts | 139° |
| 2026-05-04 03:34 | -9.01394 | 115.41053 | 40952 ft | 489 kts | 139° |
| 2026-05-04 03:34 | -9.06389 | 115.45749 | 40952 ft | 490 kts | 139° |
| 2026-05-04 03:35 | -9.11382 | 115.50445 | 40949 ft | 490 kts | 139° |
| 2026-05-04 03:35 | -9.16349 | 115.55119 | 40951 ft | 490 kts | 139° |
| 2026-05-04 03:36 | -9.21377 | 115.59851 | 40951 ft | 491 kts | 139° |
| 2026-05-04 03:36 | -9.26343 | 115.64527 | 40953 ft | 491 kts | 139° |
| 2026-05-04 03:37 | -9.31348 | 115.69242 | 40949 ft | 491 kts | 139° |
| 2026-05-04 03:37 | -9.36347 | 115.73955 | 40949 ft | 491 kts | 139° |
| 2026-05-04 03:38 | -9.41353 | 115.78674 | 40951 ft | 491 kts | 139° |
| 2026-05-04 03:38 | -9.46359 | 115.83397 | 40950 ft | 492 kts | 139° |
| 2026-05-04 03:39 | -9.51339 | 115.88096 | 40950 ft | 492 kts | 139° |
| 2026-05-04 03:39 | -9.56344 | 115.92821 | 40951 ft | 492 kts | 139° |
| 2026-05-04 03:40 | -9.61360 | 115.97558 | 40949 ft | 492 kts | 139° |
| 2026-05-04 03:40 | -9.66372 | 116.02294 | 40950 ft | 492 kts | 139° |
| 2026-05-04 03:41 | -9.71386 | 116.07034 | 40948 ft | 492 kts | 139° |
| 2026-05-04 03:41 | -9.76371 | 116.11748 | 40946 ft | 493 kts | 139° |
| 2026-05-04 03:42 | -9.81382 | 116.16489 | 40949 ft | 493 kts | 139° |
| 2026-05-04 03:42 | -9.86396 | 116.21234 | 40951 ft | 493 kts | 139° |
| 2026-05-04 03:43 | -9.91411 | 116.25983 | 40947 ft | 493 kts | 139° |
| 2026-05-04 03:43 | -9.96417 | 116.30725 | 40947 ft | 493 kts | 139° |
| 2026-05-04 03:44 | -10.01428 | 116.35474 | 40947 ft | 493 kts | 139° |
| 2026-05-04 03:44 | -10.06445 | 116.40231 | 40952 ft | 493 kts | 139° |
| 2026-05-04 03:45 | -10.11465 | 116.44993 | 40948 ft | 493 kts | 139° |
| 2026-05-04 03:45 | -10.16449 | 116.49723 | 40955 ft | 493 kts | 139° |
| 2026-05-04 03:46 | -10.21466 | 116.54486 | 40950 ft | 493 kts | 139° |
| 2026-05-04 03:46 | -10.26481 | 116.59250 | 40949 ft | 493 kts | 139° |
| 2026-05-04 03:47 | -10.31489 | 116.64009 | 40953 ft | 493 kts | 139° |
| 2026-05-04 03:47 | -10.36497 | 116.68770 | 40955 ft | 493 kts | 139° |
| 2026-05-04 03:48 | -10.41476 | 116.73506 | 40952 ft | 493 kts | 139° |
| 2026-05-04 03:48 | -10.46502 | 116.78289 | 40950 ft | 493 kts | 139° |
| 2026-05-04 03:49 | -10.51514 | 116.83061 | 40948 ft | 493 kts | 139° |
| 2026-05-04 03:49 | -10.56497 | 116.87807 | 40949 ft | 493 kts | 139° |
| 2026-05-04 03:50 | -10.61507 | 116.92581 | 40953 ft | 494 kts | 139° |
| 2026-05-04 03:50 | -10.66521 | 116.97361 | 40951 ft | 494 kts | 139° |
| 2026-05-04 03:51 | -10.71536 | 117.02145 | 40954 ft | 494 kts | 139° |
| 2026-05-04 03:51 | -10.76552 | 117.06932 | 40954 ft | 494 kts | 139° |
| 2026-05-04 03:52 | -10.81568 | 117.11721 | 40951 ft | 494 kts | 139° |
| 2026-05-04 03:52 | -10.86554 | 117.16483 | 40950 ft | 494 kts | 139° |
| 2026-05-04 03:53 | -10.91576 | 117.21283 | 40951 ft | 494 kts | 139° |
| 2026-05-04 03:53 | -10.96582 | 117.26069 | 40956 ft | 494 kts | 139° |
| 2026-05-04 03:54 | -11.01591 | 117.30861 | 40952 ft | 494 kts | 139° |
| 2026-05-04 03:54 | -11.06597 | 117.35652 | 40952 ft | 494 kts | 139° |
| 2026-05-04 03:55 | -11.11582 | 117.40426 | 40956 ft | 494 kts | 140° |
| 2026-05-04 03:55 | -11.16593 | 117.45225 | 40956 ft | 494 kts | 140° |
| 2026-05-04 03:56 | -11.21609 | 117.50034 | 40957 ft | 494 kts | 140° |
| 2026-05-04 03:56 | -11.26610 | 117.54829 | 40954 ft | 494 kts | 140° |
| 2026-05-04 03:57 | -11.31588 | 117.59605 | 40961 ft | 494 kts | 140° |
| 2026-05-04 03:57 | -11.36596 | 117.64412 | 40955 ft | 494 kts | 140° |
| 2026-05-04 03:58 | -11.44113 | 117.71633 | 40952 ft | 494 kts | 140° |
| 2026-05-04 03:58 | -11.49088 | 117.76415 | 40956 ft | 495 kts | 140° |
| 2026-05-04 03:59 | -11.54091 | 117.81226 | 40960 ft | 495 kts | 140° |
| 2026-05-04 03:59 | -11.59102 | 117.86047 | 40955 ft | 495 kts | 140° |
| 2026-05-04 04:00 | -11.64113 | 117.90871 | 40953 ft | 495 kts | 140° |
| 2026-05-04 04:00 | -11.69128 | 117.95700 | 40955 ft | 495 kts | 140° |
| 2026-05-04 04:01 | -11.74120 | 118.00511 | 40952 ft | 495 kts | 140° |
| 2026-05-04 04:01 | -11.79146 | 118.05357 | 40955 ft | 496 kts | 140° |
| 2026-05-04 04:02 | -11.84133 | 118.10168 | 40960 ft | 496 kts | 140° |
| 2026-05-04 04:02 | -11.89150 | 118.15010 | 40954 ft | 496 kts | 140° |
| 2026-05-04 04:03 | -11.94175 | 118.19863 | 40960 ft | 496 kts | 140° |
| 2026-05-04 04:03 | -11.99199 | 118.24717 | 40959 ft | 497 kts | 140° |
| 2026-05-04 04:04 | -12.04217 | 118.29570 | 40954 ft | 497 kts | 140° |
| 2026-05-04 04:04 | -12.09207 | 118.34396 | 40955 ft | 497 kts | 140° |
| 2026-05-04 04:05 | -12.14264 | 118.39290 | 40962 ft | 497 kts | 140° |
| 2026-05-04 04:05 | -12.19255 | 118.44122 | 40956 ft | 497 kts | 140° |
| 2026-05-04 04:06 | -12.24281 | 118.48991 | 40959 ft | 497 kts | 140° |
| 2026-05-04 04:06 | -12.29305 | 118.53862 | 40949 ft | 498 kts | 139° |
| 2026-05-04 04:07 | -12.34335 | 118.58741 | 40968 ft | 498 kts | 139° |
| 2026-05-04 04:07 | -12.39364 | 118.63621 | 40947 ft | 498 kts | 140° |
| 2026-05-04 04:08 | -12.44363 | 118.68476 | 40953 ft | 498 kts | 140° |
| 2026-05-04 04:08 | -12.49395 | 118.73365 | 40959 ft | 498 kts | 140° |
| 2026-05-04 04:09 | -12.54428 | 118.78257 | 40953 ft | 499 kts | 140° |
| 2026-05-04 04:09 | -12.59433 | 118.83125 | 40959 ft | 499 kts | 140° |
| 2026-05-04 04:10 | -12.64476 | 118.88033 | 40955 ft | 499 kts | 140° |
| 2026-05-04 04:10 | -12.69514 | 118.92939 | 40967 ft | 499 kts | 140° |
| 2026-05-04 04:11 | -12.74526 | 118.97823 | 40963 ft | 500 kts | 140° |
| 2026-05-04 04:11 | -12.79561 | 119.02732 | 40965 ft | 500 kts | 140° |
| 2026-05-04 04:12 | -12.84601 | 119.07648 | 40965 ft | 500 kts | 140° |
| 2026-05-04 04:12 | -12.89646 | 119.12572 | 40966 ft | 500 kts | 140° |
| 2026-05-04 04:13 | -12.94686 | 119.17494 | 40962 ft | 501 kts | 140° |
| 2026-05-04 04:13 | -12.99734 | 119.22427 | 40961 ft | 501 kts | 140° |
| 2026-05-04 04:14 | -13.04785 | 119.27366 | 40962 ft | 502 kts | 140° |
| 2026-05-04 04:14 | -13.09838 | 119.32309 | 40962 ft | 502 kts | 140° |
| 2026-05-04 04:15 | -13.14887 | 119.37252 | 40960 ft | 502 kts | 140° |
| 2026-05-04 04:15 | -13.19915 | 119.42176 | 40961 ft | 502 kts | 140° |
| 2026-05-04 04:16 | -13.24982 | 119.47143 | 40962 ft | 503 kts | 140° |
| 2026-05-04 04:16 | -13.30046 | 119.52109 | 40965 ft | 503 kts | 140° |
| 2026-05-04 04:17 | -13.35084 | 119.57052 | 40964 ft | 503 kts | 140° |
| 2026-05-04 04:17 | -13.40144 | 119.62021 | 40964 ft | 503 kts | 140° |
| 2026-05-04 04:18 | -13.45220 | 119.67008 | 40962 ft | 503 kts | 140° |
| 2026-05-04 04:18 | -13.50282 | 119.71984 | 40968 ft | 503 kts | 140° |
| 2026-05-04 04:19 | -13.55336 | 119.76956 | 40968 ft | 504 kts | 140° |
| 2026-05-04 04:19 | -13.60378 | 119.81918 | 40967 ft | 504 kts | 140° |
| 2026-05-04 04:20 | -13.65434 | 119.86898 | 40970 ft | 504 kts | 140° |
| 2026-05-04 04:20 | -13.70508 | 119.91898 | 40969 ft | 504 kts | 140° |
| 2026-05-04 04:21 | -13.74725 | 119.96057 | 40967 ft | 504 kts | 140° |
| 2026-05-04 04:21 | -13.80607 | 120.01861 | 40967 ft | 504 kts | 140° |
| 2026-05-04 04:22 | -13.85672 | 120.06862 | 40965 ft | 504 kts | 140° |
| 2026-05-04 04:22 | -13.89887 | 120.11026 | 40965 ft | 504 kts | 140° |
| 2026-05-04 04:23 | -13.94947 | 120.16029 | 40964 ft | 504 kts | 140° |
| 2026-05-04 04:23 | -14.00016 | 120.21043 | 40963 ft | 504 kts | 140° |
| 2026-05-04 04:24 | -14.05075 | 120.26051 | 40963 ft | 504 kts | 140° |
| 2026-05-04 04:24 | -14.10146 | 120.31073 | 40966 ft | 505 kts | 140° |
| 2026-05-04 04:25 | -14.15177 | 120.36060 | 40969 ft | 505 kts | 140° |
| 2026-05-04 04:25 | -14.20244 | 120.41085 | 40968 ft | 505 kts | 140° |
| 2026-05-04 04:26 | -14.25312 | 120.46115 | 40964 ft | 505 kts | 140° |
| 2026-05-04 04:26 | -14.30376 | 120.51143 | 40962 ft | 505 kts | 140° |
| 2026-05-04 04:27 | -14.35448 | 120.56183 | 40966 ft | 506 kts | 140° |
| 2026-05-04 04:27 | -14.40480 | 120.61187 | 40967 ft | 506 kts | 140° |
| 2026-05-04 04:28 | -14.45551 | 120.66233 | 40964 ft | 506 kts | 140° |
| 2026-05-04 04:28 | -14.50623 | 120.71284 | 40963 ft | 507 kts | 140° |
| 2026-05-04 04:29 | -14.55704 | 120.76346 | 40968 ft | 507 kts | 140° |
| 2026-05-04 04:29 | -14.60782 | 120.81410 | 40967 ft | 507 kts | 140° |
| 2026-05-04 04:30 | -14.65842 | 120.86458 | 40967 ft | 508 kts | 140° |
| 2026-05-04 04:30 | -14.70934 | 120.91541 | 40968 ft | 508 kts | 140° |
| 2026-05-04 04:31 | -14.76021 | 120.96624 | 40969 ft | 508 kts | 140° |
| 2026-05-04 04:31 | -14.81074 | 121.01680 | 40966 ft | 503 kts | 140° |
| 2026-05-04 04:32 | -14.86090 | 121.06698 | 40968 ft | 501 kts | 140° |
| 2026-05-04 04:32 | -14.91099 | 121.11711 | 40968 ft | 501 kts | 140° |
| 2026-05-04 04:33 | -14.96078 | 121.16698 | 40971 ft | 501 kts | 140° |
| 2026-05-04 04:33 | -15.01089 | 121.21720 | 40970 ft | 502 kts | 140° |
| 2026-05-04 04:34 | -15.06106 | 121.26753 | 40972 ft | 502 kts | 140° |
| 2026-05-04 04:34 | -15.11116 | 121.31783 | 40972 ft | 502 kts | 140° |
| 2026-05-04 04:35 | -15.16126 | 121.36816 | 40970 ft | 502 kts | 140° |
| 2026-05-04 04:35 | -15.21141 | 121.41858 | 40969 ft | 502 kts | 140° |
| 2026-05-04 04:36 | -15.26120 | 121.46866 | 40970 ft | 502 kts | 140° |
| 2026-05-04 04:36 | -15.31140 | 121.51920 | 40971 ft | 503 kts | 140° |
| 2026-05-04 04:37 | -15.41172 | 121.62030 | 40972 ft | 503 kts | 140° |
| 2026-05-04 04:38 | -15.46192 | 121.67093 | 40969 ft | 503 kts | 140° |
| 2026-05-04 04:38 | -15.51212 | 121.72162 | 40967 ft | 504 kts | 140° |
| 2026-05-04 04:39 | -15.56202 | 121.77203 | 40970 ft | 504 kts | 140° |
| 2026-05-04 04:39 | -15.61230 | 121.82286 | 40969 ft | 504 kts | 140° |
| 2026-05-04 04:40 | -15.66259 | 121.87374 | 40971 ft | 504 kts | 140° |
| 2026-05-04 04:40 | -15.71280 | 121.92457 | 40967 ft | 504 kts | 140° |
| 2026-05-04 04:41 | -15.76302 | 121.97546 | 40968 ft | 504 kts | 140° |
| 2026-05-04 04:41 | -15.81323 | 122.02636 | 40969 ft | 505 kts | 140° |
| 2026-05-04 04:42 | -15.86315 | 122.07702 | 40969 ft | 505 kts | 140° |
| 2026-05-04 04:42 | -15.91339 | 122.12803 | 40969 ft | 505 kts | 140° |
| 2026-05-04 04:43 | -15.96368 | 122.17914 | 40971 ft | 505 kts | 140° |
| 2026-05-04 04:43 | -16.01388 | 122.23019 | 40967 ft | 505 kts | 140° |
| 2026-05-04 04:44 | -16.06415 | 122.28134 | 40967 ft | 505 kts | 140° |
| 2026-05-04 04:44 | -16.11442 | 122.33255 | 40970 ft | 505 kts | 140° |
| 2026-05-04 04:45 | -16.16469 | 122.38378 | 40968 ft | 506 kts | 140° |
| 2026-05-04 04:47 | -16.34038 | 122.56315 | 40967 ft | 507 kts | 141° |
| 2026-05-04 04:47 | -16.39067 | 122.61458 | 40967 ft | 507 kts | 141° |
| 2026-05-04 04:48 | -16.44104 | 122.66613 | 40969 ft | 507 kts | 141° |
| 2026-05-04 04:49 | -16.56656 | 122.79477 | 40973 ft | 508 kts | 141° |
| 2026-05-04 04:49 | -16.61689 | 122.84642 | 40973 ft | 508 kts | 141° |
| 2026-05-04 04:50 | -16.66729 | 122.89819 | 40970 ft | 508 kts | 141° |
| 2026-05-04 04:50 | -16.71766 | 122.94996 | 40975 ft | 508 kts | 141° |
| 2026-05-04 04:51 | -16.76806 | 123.00179 | 40962 ft | 509 kts | 141° |
| 2026-05-04 04:51 | -16.81851 | 123.05373 | 40969 ft | 509 kts | 141° |
| 2026-05-04 04:52 | -16.86896 | 123.10571 | 40971 ft | 509 kts | 141° |
| 2026-05-04 04:52 | -16.91937 | 123.15769 | 40979 ft | 509 kts | 141° |
| 2026-05-04 04:53 | -16.96946 | 123.20937 | 40977 ft | 509 kts | 141° |
| 2026-05-04 04:53 | -17.01993 | 123.26149 | 40975 ft | 510 kts | 141° |
| 2026-05-04 04:54 | -17.07044 | 123.31371 | 40982 ft | 510 kts | 141° |
| 2026-05-04 04:54 | -17.12086 | 123.36586 | 40974 ft | 510 kts | 141° |
| 2026-05-04 04:55 | -17.17133 | 123.41810 | 40972 ft | 510 kts | 141° |
| 2026-05-04 04:55 | -17.22153 | 123.47011 | 40975 ft | 511 kts | 141° |
| 2026-05-04 04:56 | -17.27188 | 123.52232 | 40977 ft | 511 kts | 141° |
| 2026-05-04 04:56 | -17.32252 | 123.57487 | 40981 ft | 511 kts | 141° |
| 2026-05-04 04:57 | -17.37308 | 123.62738 | 40975 ft | 511 kts | 141° |
| 2026-05-04 04:57 | -17.42333 | 123.67961 | 40973 ft | 511 kts | 141° |
| 2026-05-04 04:58 | -17.47377 | 123.73209 | 40969 ft | 512 kts | 141° |
| 2026-05-04 04:58 | -17.52439 | 123.78480 | 40966 ft | 512 kts | 141° |
| 2026-05-04 04:59 | -17.57489 | 123.83768 | 40962 ft | 514 kts | 139° |
| 2026-05-04 04:59 | -17.61942 | 123.89702 | 40966 ft | 520 kts | 131° |
| 2026-05-04 05:00 | -17.66142 | 123.95902 | 40971 ft | 522 kts | 130° |
| 2026-05-04 05:01 | -17.72362 | 124.05240 | 40981 ft | 522 kts | 130° |
| 2026-05-04 05:01 | -17.76546 | 124.11495 | 40983 ft | 522 kts | 130° |
| 2026-05-04 05:02 | -17.80724 | 124.17732 | 40988 ft | 523 kts | 130° |
| 2026-05-04 05:02 | -17.84881 | 124.23940 | 40980 ft | 523 kts | 130° |
| 2026-05-04 05:03 | -17.89065 | 124.30195 | 40986 ft | 523 kts | 130° |
| 2026-05-04 05:04 | -17.97432 | 124.42724 | 40986 ft | 524 kts | 130° |
| 2026-05-04 05:04 | -18.01618 | 124.49001 | 40990 ft | 524 kts | 130° |
| 2026-05-04 05:06 | -18.18360 | 124.74168 | 40987 ft | 526 kts | 130° |
| 2026-05-04 05:07 | -18.22556 | 124.80492 | 40988 ft | 527 kts | 130° |
| 2026-05-04 05:07 | -18.26724 | 124.86779 | 40989 ft | 527 kts | 130° |
| 2026-05-04 05:09 | -18.45607 | 125.15337 | 40985 ft | 529 kts | 131° |
| 2026-05-04 05:10 | -18.49816 | 125.21719 | 40990 ft | 530 kts | 131° |
| 2026-05-04 05:10 | -18.54023 | 125.28105 | 40988 ft | 530 kts | 131° |
| 2026-05-04 05:11 | -18.58210 | 125.34468 | 40983 ft | 531 kts | 131° |
| 2026-05-04 05:11 | -18.62428 | 125.40884 | 40985 ft | 531 kts | 131° |
| 2026-05-04 05:12 | -18.65930 | 125.46216 | 40989 ft | 532 kts | 131° |
| 2026-05-04 05:12 | -18.70144 | 125.52637 | 40987 ft | 532 kts | 130° |
| 2026-05-04 05:13 | -18.75048 | 125.60119 | 40988 ft | 533 kts | 130° |
| 2026-05-04 05:13 | -18.78555 | 125.65474 | 40989 ft | 533 kts | 130° |
| 2026-05-04 05:14 | -18.82777 | 125.71929 | 40987 ft | 534 kts | 130° |
| 2026-05-04 05:14 | -18.87000 | 125.78391 | 40986 ft | 534 kts | 130° |
| 2026-05-04 05:15 | -18.91222 | 125.84858 | 40991 ft | 535 kts | 130° |
| 2026-05-04 05:15 | -18.95450 | 125.91341 | 40989 ft | 535 kts | 130° |
| 2026-05-04 05:16 | -18.99652 | 125.97789 | 40991 ft | 536 kts | 130° |
| 2026-05-04 05:16 | -19.03883 | 126.04291 | 40990 ft | 537 kts | 130° |
| 2026-05-04 05:17 | -19.08111 | 126.10796 | 40989 ft | 537 kts | 130° |
| 2026-05-04 05:17 | -19.12349 | 126.17321 | 40987 ft | 538 kts | 130° |
| 2026-05-04 05:18 | -19.16584 | 126.23848 | 40989 ft | 538 kts | 130° |
| 2026-05-04 05:18 | -19.20823 | 126.30386 | 40977 ft | 539 kts | 130° |
| 2026-05-04 05:19 | -19.25040 | 126.36899 | 40979 ft | 539 kts | 130° |
| 2026-05-04 05:19 | -19.29282 | 126.43457 | 40977 ft | 540 kts | 130° |
| 2026-05-04 05:20 | -19.33531 | 126.50034 | 40985 ft | 541 kts | 130° |
| 2026-05-04 05:20 | -19.37778 | 126.56616 | 40984 ft | 541 kts | 130° |
| 2026-05-04 05:21 | -19.42032 | 126.63216 | 40986 ft | 542 kts | 130° |
| 2026-05-04 05:21 | -19.46287 | 126.69831 | 40985 ft | 542 kts | 130° |
| 2026-05-04 05:22 | -19.50511 | 126.76414 | 40989 ft | 543 kts | 130° |
| 2026-05-04 05:22 | -19.54763 | 126.83046 | 40974 ft | 544 kts | 130° |
| 2026-05-04 05:23 | -19.58990 | 126.89647 | 40994 ft | 544 kts | 130° |
| 2026-05-04 05:23 | -19.63248 | 126.96302 | 40992 ft | 545 kts | 130° |
| 2026-05-04 05:24 | -19.67509 | 127.02968 | 40990 ft | 545 kts | 130° |
| 2026-05-04 05:24 | -19.71768 | 127.09640 | 40991 ft | 546 kts | 130° |
| 2026-05-04 05:25 | -19.76028 | 127.16319 | 40987 ft | 547 kts | 130° |
| 2026-05-04 05:25 | -19.80296 | 127.23021 | 40988 ft | 547 kts | 130° |
| 2026-05-04 05:26 | -19.84565 | 127.29730 | 40988 ft | 548 kts | 130° |
| 2026-05-04 05:26 | -19.88806 | 127.36403 | 40983 ft | 548 kts | 130° |
| 2026-05-04 05:28 | -20.05909 | 127.63389 | 40994 ft | 551 kts | 130° |
| 2026-05-04 05:29 | -20.10191 | 127.70164 | 40990 ft | 551 kts | 129° |
| 2026-05-04 05:29 | -20.14445 | 127.76904 | 40990 ft | 552 kts | 129° |
| 2026-05-04 05:31 | -20.31565 | 128.04105 | 40987 ft | 554 kts | 129° |
| 2026-05-04 05:32 | -20.35855 | 128.10940 | 40994 ft | 554 kts | 129° |
| 2026-05-04 05:33 | -20.42297 | 128.21219 | 40994 ft | 555 kts | 129° |
| 2026-05-04 05:33 | -20.46591 | 128.28082 | 40995 ft | 556 kts | 129° |
| 2026-05-04 05:34 | -20.50859 | 128.34911 | 40996 ft | 556 kts | 129° |
| 2026-05-04 05:34 | -20.55152 | 128.41788 | 40996 ft | 557 kts | 129° |
| 2026-05-04 05:35 | -20.59450 | 128.48681 | 40996 ft | 557 kts | 129° |
| 2026-05-04 05:35 | -20.63745 | 128.55578 | 40999 ft | 558 kts | 129° |
| 2026-05-04 05:36 | -20.68021 | 128.62452 | 41000 ft | 558 kts | 129° |
| 2026-05-04 05:36 | -20.72315 | 128.69365 | 40995 ft | 559 kts | 129° |
| 2026-05-04 05:37 | -20.76618 | 128.76299 | 40997 ft | 559 kts | 129° |
| 2026-05-04 05:37 | -20.80926 | 128.83250 | 40993 ft | 560 kts | 129° |
| 2026-05-04 05:38 | -20.87383 | 128.93684 | 40991 ft | 561 kts | 129° |
| 2026-05-04 05:38 | -20.91657 | 129.00602 | 40990 ft | 561 kts | 129° |
| 2026-05-04 05:39 | -20.98117 | 129.11074 | 40985 ft | 562 kts | 129° |
| 2026-05-04 05:40 | -21.04578 | 129.21567 | 40989 ft | 563 kts | 129° |
| 2026-05-04 05:40 | -21.08859 | 129.28529 | 40990 ft | 563 kts | 129° |
| 2026-05-04 05:41 | -21.13163 | 129.35539 | 40987 ft | 563 kts | 129° |
| 2026-05-04 05:41 | -21.17467 | 129.42556 | 40983 ft | 564 kts | 129° |
| 2026-05-04 05:42 | -21.21774 | 129.49588 | 40993 ft | 564 kts | 129° |
| 2026-05-04 05:42 | -21.26057 | 129.56590 | 40989 ft | 564 kts | 129° |
| 2026-05-04 05:43 | -21.30360 | 129.63633 | 40986 ft | 565 kts | 128° |
| 2026-05-04 05:45 | -21.47565 | 129.91883 | 40990 ft | 567 kts | 128° |
| 2026-05-04 05:47 | -21.64803 | 130.20331 | 40991 ft | 569 kts | 128° |
| 2026-05-04 05:47 | -21.69115 | 130.27473 | 40994 ft | 569 kts | 128° |
| 2026-05-04 05:48 | -21.73406 | 130.34587 | 40998 ft | 570 kts | 128° |
| 2026-05-04 05:48 | -21.77730 | 130.41765 | 40998 ft | 570 kts | 128° |
| 2026-05-04 05:49 | -21.82041 | 130.48930 | 41001 ft | 571 kts | 128° |
| 2026-05-04 05:49 | -21.86358 | 130.56115 | 41004 ft | 571 kts | 128° |
| 2026-05-04 05:51 | -22.03601 | 130.84919 | 41018 ft | 573 kts | 127° |
| 2026-05-04 05:52 | -22.07911 | 130.92145 | 41016 ft | 573 kts | 127° |
| 2026-05-04 05:52 | -22.12193 | 130.99332 | 41022 ft | 574 kts | 127° |
| 2026-05-04 05:54 | -22.29424 | 131.28350 | 41035 ft | 575 kts | 127° |
| 2026-05-04 05:55 | -22.33731 | 131.35628 | 41037 ft | 575 kts | 127° |
| 2026-05-04 05:55 | -22.38041 | 131.42920 | 41044 ft | 576 kts | 127° |
| 2026-05-04 05:56 | -22.42352 | 131.50224 | 41042 ft | 576 kts | 127° |
| 2026-05-04 05:56 | -22.46664 | 131.57542 | 41045 ft | 576 kts | 127° |
| 2026-05-04 05:57 | -22.50974 | 131.64865 | 41046 ft | 576 kts | 127° |
| 2026-05-04 05:57 | -22.55250 | 131.72140 | 41048 ft | 577 kts | 126° |
| 2026-05-04 05:58 | -22.59555 | 131.79477 | 41046 ft | 577 kts | 126° |
| 2026-05-04 05:58 | -22.63860 | 131.86822 | 41038 ft | 577 kts | 126° |
| 2026-05-04 05:59 | -22.67437 | 131.92933 | 41058 ft | 577 kts | 126° |
| 2026-05-04 05:59 | -22.71735 | 132.00287 | 41045 ft | 578 kts | 126° |
| 2026-05-04 06:00 | -22.76032 | 132.07648 | 41053 ft | 578 kts | 126° |
| 2026-05-04 06:00 | -22.80328 | 132.15018 | 41058 ft | 578 kts | 126° |
| 2026-05-04 06:01 | -22.84622 | 132.22395 | 41058 ft | 578 kts | 126° |
| 2026-05-04 06:03 | -23.01759 | 132.51942 | 41070 ft | 579 kts | 126° |
| 2026-05-04 06:05 | -23.21026 | 132.85366 | 41087 ft | 580 kts | 125° |
| 2026-05-04 06:06 | -23.25306 | 132.92820 | 41098 ft | 581 kts | 125° |
| 2026-05-04 06:06 | -23.29552 | 133.00226 | 41093 ft | 580 kts | 125° |
| 2026-05-04 06:07 | -23.33831 | 133.07701 | 41093 ft | 580 kts | 124° |
| 2026-05-04 06:07 | -23.38097 | 133.15163 | 41102 ft | 580 kts | 124° |
| 2026-05-04 06:08 | -23.42333 | 133.22585 | 41099 ft | 580 kts | 124° |
| 2026-05-04 06:08 | -23.46590 | 133.30053 | 41104 ft | 580 kts | 124° |
| 2026-05-04 06:09 | -23.50844 | 133.37529 | 41110 ft | 580 kts | 124° |
| 2026-05-04 06:11 | -23.67781 | 133.67400 | 41136 ft | 580 kts | 124° |
| 2026-05-04 06:13 | -23.85796 | 133.96430 | 41157 ft | 576 kts | 133° |
| 2026-05-04 06:14 | -24.03747 | 134.19990 | 41133 ft | 576 kts | 133° |
| 2026-05-04 06:15 | -24.08860 | 134.26749 | 41133 ft | 576 kts | 133° |
| 2026-05-04 06:15 | -24.13931 | 134.33462 | 41131 ft | 575 kts | 133° |
| 2026-05-04 06:16 | -24.19037 | 134.40229 | 41136 ft | 576 kts | 133° |
| 2026-05-04 06:16 | -24.24134 | 134.46994 | 41137 ft | 575 kts | 132° |
| 2026-05-04 06:17 | -24.29233 | 134.53769 | 41142 ft | 575 kts | 132° |
| 2026-05-04 06:17 | -24.34290 | 134.60499 | 41134 ft | 575 kts | 132° |
| 2026-05-04 06:18 | -24.39383 | 134.67284 | 41144 ft | 574 kts | 132° |
| 2026-05-04 06:20 | -24.59649 | 134.94384 | 41139 ft | 574 kts | 132° |
| 2026-05-04 06:21 | -24.72287 | 135.11361 | 41140 ft | 574 kts | 131° |
| 2026-05-04 06:22 | -24.77341 | 135.18167 | 41139 ft | 574 kts | 131° |
| 2026-05-04 06:25 | -25.12550 | 135.65854 | 41144 ft | 573 kts | 131° |
| 2026-05-04 06:26 | -25.17567 | 135.72687 | 41144 ft | 573 kts | 131° |
| 2026-05-04 06:26 | -25.22584 | 135.79532 | 41144 ft | 573 kts | 131° |
| 2026-05-04 06:27 | -25.35096 | 135.96643 | 41146 ft | 573 kts | 131° |
| 2026-05-04 06:28 | -25.40104 | 136.03509 | 41148 ft | 573 kts | 131° |
| 2026-05-04 06:28 | -25.45104 | 136.10376 | 41149 ft | 573 kts | 131° |
| 2026-05-04 06:29 | -25.50059 | 136.17190 | 41143 ft | 573 kts | 131° |
| 2026-05-04 06:29 | -25.55056 | 136.24071 | 41147 ft | 573 kts | 130° |
| 2026-05-04 06:30 | -25.60043 | 136.30949 | 41151 ft | 573 kts | 130° |
| 2026-05-04 06:30 | -25.65043 | 136.37855 | 41175 ft | 574 kts | 130° |
| 2026-05-04 06:31 | -25.67540 | 136.41307 | 41342 ft | 573 kts | 130° |
| 2026-05-04 06:31 | -25.70029 | 136.44753 | 41623 ft | 571 kts | 130° |
| 2026-05-04 06:31 | -25.72511 | 136.48190 | 41907 ft | 569 kts | 130° |
| 2026-05-04 06:31 | -25.74983 | 136.51618 | 42156 ft | 568 kts | 130° |
| 2026-05-04 06:32 | -25.77422 | 136.55000 | 42385 ft | 567 kts | 130° |
| 2026-05-04 06:33 | -25.94570 | 136.78856 | 43145 ft | 563 kts | 130° |
| 2026-05-04 06:34 | -25.99451 | 136.85670 | 43147 ft | 563 kts | 130° |
| 2026-05-04 06:34 | -26.04305 | 136.92457 | 43147 ft | 563 kts | 130° |
| 2026-05-04 06:36 | -26.23802 | 137.19821 | 43143 ft | 563 kts | 130° |
| 2026-05-04 06:37 | -26.28632 | 137.26625 | 43146 ft | 563 kts | 130° |
| 2026-05-04 06:37 | -26.33490 | 137.33479 | 43149 ft | 564 kts | 130° |
| 2026-05-04 06:38 | -26.38347 | 137.40343 | 43149 ft | 564 kts | 130° |
| 2026-05-04 06:40 | -26.57761 | 137.67881 | 43145 ft | 564 kts | 130° |
| 2026-05-04 06:40 | -26.62615 | 137.74791 | 43162 ft | 564 kts | 130° |
| 2026-05-04 06:41 | -26.67453 | 137.81690 | 43146 ft | 564 kts | 130° |
| 2026-05-04 06:41 | -26.72290 | 137.88598 | 43149 ft | 564 kts | 129° |
| 2026-05-04 06:42 | -26.77093 | 137.95469 | 43150 ft | 564 kts | 129° |
| 2026-05-04 06:44 | -26.96403 | 138.23197 | 43145 ft | 564 kts | 129° |
| 2026-05-04 06:44 | -27.01199 | 138.30113 | 43143 ft | 564 kts | 129° |
| 2026-05-04 06:45 | -27.06016 | 138.37072 | 43146 ft | 564 kts | 129° |
| 2026-05-04 06:45 | -27.10016 | 138.42858 | 43151 ft | 564 kts | 129° |
| 2026-05-04 06:46 | -27.14831 | 138.49831 | 43145 ft | 564 kts | 129° |
| 2026-05-04 06:46 | -27.19647 | 138.56817 | 43144 ft | 565 kts | 129° |
| 2026-05-04 06:48 | -27.38825 | 138.84748 | 43148 ft | 565 kts | 129° |
| 2026-05-04 06:50 | -27.57998 | 139.12851 | 43141 ft | 566 kts | 129° |
| 2026-05-04 06:51 | -27.62758 | 139.19857 | 43140 ft | 566 kts | 129° |
| 2026-05-04 06:51 | -27.67557 | 139.26931 | 43139 ft | 566 kts | 129° |
| 2026-05-04 06:52 | -27.72343 | 139.33996 | 43137 ft | 566 kts | 129° |
| 2026-05-04 06:52 | -27.77089 | 139.41015 | 43140 ft | 566 kts | 129° |
| 2026-05-04 06:53 | -27.81871 | 139.48099 | 43136 ft | 566 kts | 129° |
| 2026-05-04 06:53 | -27.86637 | 139.55170 | 43137 ft | 566 kts | 129° |
| 2026-05-04 06:54 | -27.91399 | 139.62247 | 43137 ft | 567 kts | 128° |
| 2026-05-04 06:54 | -27.96195 | 139.69386 | 43131 ft | 567 kts | 128° |
| 2026-05-04 06:55 | -28.00962 | 139.76493 | 43137 ft | 567 kts | 128° |
| 2026-05-04 06:55 | -28.05720 | 139.83599 | 43137 ft | 567 kts | 128° |
| 2026-05-04 06:57 | -28.24725 | 140.12100 | 43139 ft | 567 kts | 128° |
| 2026-05-04 06:58 | -28.29469 | 140.19245 | 43123 ft | 567 kts | 128° |
| 2026-05-04 06:58 | -28.34210 | 140.26397 | 43131 ft | 567 kts | 128° |
| 2026-05-04 06:59 | -28.38946 | 140.33553 | 43129 ft | 567 kts | 128° |
| 2026-05-04 06:59 | -28.43696 | 140.40742 | 43133 ft | 567 kts | 128° |
| 2026-05-04 07:01 | -28.62591 | 140.69462 | 43141 ft | 567 kts | 128° |
| 2026-05-04 07:02 | -28.67315 | 140.76673 | 43113 ft | 567 kts | 128° |
| 2026-05-04 07:02 | -28.72025 | 140.83874 | 43115 ft | 568 kts | 128° |
| 2026-05-04 07:03 | -28.76734 | 140.91088 | 43141 ft | 568 kts | 128° |
| 2026-05-04 07:03 | -28.81421 | 140.98279 | 43124 ft | 568 kts | 128° |
| 2026-05-04 07:04 | -28.86136 | 141.05526 | 43126 ft | 568 kts | 128° |
| 2026-05-04 07:04 | -28.90817 | 141.12733 | 43126 ft | 568 kts | 128° |
| 2026-05-04 07:05 | -28.95543 | 141.20022 | 43127 ft | 569 kts | 128° |
| 2026-05-04 07:05 | -29.00225 | 141.27255 | 43128 ft | 569 kts | 128° |
| 2026-05-04 07:06 | -29.07289 | 141.38193 | 43119 ft | 569 kts | 128° |
| 2026-05-04 07:07 | -29.11968 | 141.45453 | 43121 ft | 569 kts | 128° |
| 2026-05-04 07:09 | -29.30700 | 141.74648 | 43119 ft | 569 kts | 128° |
| 2026-05-04 07:09 | -29.35393 | 141.81994 | 43118 ft | 569 kts | 128° |
| 2026-05-04 07:10 | -29.40069 | 141.89326 | 43121 ft | 569 kts | 127° |
| 2026-05-04 07:12 | -29.58693 | 142.18664 | 43119 ft | 569 kts | 127° |
| 2026-05-04 07:12 | -29.63352 | 142.26036 | 43113 ft | 569 kts | 127° |
| 2026-05-04 07:13 | -29.68014 | 142.33425 | 43113 ft | 569 kts | 127° |
| 2026-05-04 07:13 | -29.72626 | 142.40749 | 43117 ft | 569 kts | 127° |
| 2026-05-04 07:14 | -29.84224 | 142.59225 | 43123 ft | 570 kts | 127° |
| 2026-05-04 07:15 | -29.88870 | 142.66650 | 43111 ft | 570 kts | 127° |
| 2026-05-04 07:15 | -29.93630 | 142.73940 | 43113 ft | 569 kts | 131° |
| 2026-05-04 07:16 | -29.98682 | 142.80959 | 43110 ft | 568 kts | 132° |
| 2026-05-04 07:16 | -30.03722 | 142.87943 | 43110 ft | 568 kts | 131° |
| 2026-05-04 07:17 | -30.08698 | 142.94971 | 43109 ft | 568 kts | 131° |
| 2026-05-04 07:17 | -30.13693 | 143.02100 | 43107 ft | 568 kts | 131° |
| 2026-05-04 07:18 | -30.18625 | 143.09162 | 43109 ft | 567 kts | 131° |
| 2026-05-04 07:18 | -30.23601 | 143.16291 | 43110 ft | 567 kts | 131° |
| 2026-05-04 07:19 | -30.28522 | 143.23351 | 43107 ft | 567 kts | 131° |
| 2026-05-04 07:19 | -30.33471 | 143.30462 | 43106 ft | 567 kts | 131° |
| 2026-05-04 07:20 | -30.38402 | 143.37560 | 43101 ft | 567 kts | 131° |
| 2026-05-04 07:20 | -30.43367 | 143.44720 | 43101 ft | 566 kts | 131° |
| 2026-05-04 07:22 | -30.63036 | 143.73214 | 43095 ft | 566 kts | 130° |
| 2026-05-04 07:23 | -30.67937 | 143.80347 | 43098 ft | 566 kts | 130° |
| 2026-05-04 07:23 | -30.72849 | 143.87508 | 43095 ft | 566 kts | 130° |
| 2026-05-04 07:24 | -30.77742 | 143.94655 | 43093 ft | 566 kts | 130° |
| 2026-05-04 07:24 | -30.82639 | 144.01820 | 43094 ft | 566 kts | 130° |
| 2026-05-04 07:26 | -31.02202 | 144.30575 | 43088 ft | 566 kts | 130° |
| 2026-05-04 07:27 | -31.07058 | 144.37746 | 43089 ft | 566 kts | 130° |
| 2026-05-04 07:27 | -31.11933 | 144.44958 | 43088 ft | 566 kts | 130° |
| 2026-05-04 07:28 | -31.16788 | 144.52155 | 43091 ft | 565 kts | 130° |
| 2026-05-04 07:28 | -31.21670 | 144.59403 | 43090 ft | 565 kts | 130° |
| 2026-05-04 07:29 | -31.26516 | 144.66612 | 43089 ft | 565 kts | 130° |
| 2026-05-04 07:29 | -31.31364 | 144.73838 | 43093 ft | 564 kts | 130° |
| 2026-05-04 07:30 | -31.36193 | 144.81048 | 43086 ft | 564 kts | 130° |
| 2026-05-04 07:30 | -31.41016 | 144.88263 | 43086 ft | 564 kts | 130° |
| 2026-05-04 07:31 | -31.45831 | 144.95480 | 43089 ft | 564 kts | 130° |
| 2026-05-04 07:33 | -31.65101 | 145.24499 | 43085 ft | 563 kts | 130° |
| 2026-05-04 07:33 | -31.69880 | 145.31730 | 43085 ft | 563 kts | 130° |
| 2026-05-04 07:34 | -31.74664 | 145.38981 | 43084 ft | 562 kts | 130° |
| 2026-05-04 07:34 | -31.79468 | 145.46276 | 43083 ft | 562 kts | 130° |
| 2026-05-04 07:35 | -31.84231 | 145.53523 | 43085 ft | 562 kts | 130° |
| 2026-05-04 07:35 | -31.89018 | 145.60821 | 43084 ft | 562 kts | 130° |
| 2026-05-04 07:36 | -31.93770 | 145.68078 | 43078 ft | 561 kts | 130° |
| 2026-05-04 07:38 | -32.12788 | 145.97265 | 43081 ft | 561 kts | 129° |
| 2026-05-04 07:38 | -32.17529 | 146.04577 | 43084 ft | 560 kts | 129° |
| 2026-05-04 07:39 | -32.22255 | 146.11879 | 43082 ft | 560 kts | 129° |
| 2026-05-04 07:39 | -32.26177 | 146.17949 | 43082 ft | 560 kts | 129° |
| 2026-05-04 07:40 | -32.31691 | 146.26500 | 43070 ft | 560 kts | 129° |
| 2026-05-04 07:40 | -32.35614 | 146.32595 | 43063 ft | 559 kts | 129° |
| 2026-05-04 07:41 | -32.40330 | 146.39937 | 43075 ft | 559 kts | 129° |
| 2026-05-04 07:41 | -32.45009 | 146.47233 | 43082 ft | 559 kts | 129° |
| 2026-05-04 07:42 | -32.49693 | 146.54553 | 43062 ft | 559 kts | 129° |
| 2026-05-04 07:42 | -32.54387 | 146.61903 | 43077 ft | 558 kts | 129° |
| 2026-05-04 07:43 | -32.59078 | 146.69262 | 43063 ft | 558 kts | 129° |
| 2026-05-04 07:43 | -32.63731 | 146.76574 | 43061 ft | 558 kts | 129° |
| 2026-05-04 07:44 | -32.68402 | 146.83931 | 43070 ft | 557 kts | 129° |
| 2026-05-04 07:44 | -32.73066 | 146.91291 | 43067 ft | 557 kts | 129° |
| 2026-05-04 07:45 | -32.77707 | 146.98628 | 43063 ft | 557 kts | 129° |
| 2026-05-04 07:45 | -32.82346 | 147.05978 | 43061 ft | 556 kts | 129° |
| 2026-05-04 07:46 | -32.86978 | 147.13330 | 43069 ft | 556 kts | 129° |
| 2026-05-04 07:46 | -32.91602 | 147.20685 | 43071 ft | 556 kts | 129° |
| 2026-05-04 07:47 | -32.96215 | 147.28036 | 43070 ft | 556 kts | 129° |
| 2026-05-04 07:49 | -33.14661 | 147.57577 | 43077 ft | 554 kts | 128° |
| 2026-05-04 07:49 | -33.19227 | 147.64927 | 43076 ft | 554 kts | 128° |
| 2026-05-04 07:50 | -33.23829 | 147.72348 | 43075 ft | 553 kts | 128° |
| 2026-05-04 07:50 | -33.28376 | 147.79696 | 43071 ft | 553 kts | 128° |
| 2026-05-04 07:51 | -33.32948 | 147.87099 | 43080 ft | 552 kts | 128° |
| 2026-05-04 07:51 | -33.37685 | 147.94302 | 43074 ft | 550 kts | 134° |
| 2026-05-04 07:52 | -33.42815 | 148.01079 | 43076 ft | 549 kts | 135° |
| 2026-05-04 07:52 | -33.48015 | 148.07805 | 43083 ft | 549 kts | 135° |
| 2026-05-04 07:54 | -33.66787 | 148.32214 | 43086 ft | 544 kts | 135° |
| 2026-05-04 07:55 | -33.71859 | 148.38832 | 43079 ft | 535 kts | 136° |
| 2026-05-04 07:55 | -33.76898 | 148.45402 | 43082 ft | 541 kts | 135° |
| 2026-05-04 07:56 | -33.82002 | 148.52150 | 43082 ft | 548 kts | 135° |
| 2026-05-04 07:56 | -33.87147 | 148.58955 | 43077 ft | 548 kts | 135° |
| 2026-05-04 07:57 | -33.92250 | 148.65695 | 43083 ft | 548 kts | 135° |
| 2026-05-04 07:57 | -33.97392 | 148.72490 | 43081 ft | 547 kts | 135° |
| 2026-05-04 07:58 | -34.02530 | 148.79293 | 43080 ft | 547 kts | 135° |
| 2026-05-04 07:58 | -34.07622 | 148.86047 | 43081 ft | 547 kts | 135° |
| 2026-05-04 07:59 | -34.12760 | 148.92878 | 43078 ft | 547 kts | 135° |
| 2026-05-04 07:59 | -34.17849 | 148.99658 | 42676 ft | 544 kts | 135° |
| 2026-05-04 08:00 | -34.20401 | 149.03062 | 41843 ft | 548 kts | 135° |
| 2026-05-04 08:00 | -34.22976 | 149.06497 | 40934 ft | 554 kts | 134° |
| 2026-05-04 08:00 | -34.25578 | 149.09972 | 40080 ft | 560 kts | 134° |
| 2026-05-04 08:02 | -34.43098 | 149.35943 | 34058 ft | 578 kts | 107° |
| 2026-05-04 08:02 | -34.44130 | 149.40623 | 33162 ft | 573 kts | 98° |
| 2026-05-04 08:02 | -34.44830 | 149.45378 | 32292 ft | 569 kts | 95° |
| 2026-05-04 08:03 | -34.45368 | 149.50122 | 31461 ft | 566 kts | 93° |
| 2026-05-04 08:03 | -34.45845 | 149.54762 | 30271 ft | 547 kts | 92° |
| 2026-05-04 08:03 | -34.46314 | 149.59380 | 28757 ft | 555 kts | 92° |
| 2026-05-04 08:03 | -34.46801 | 149.64022 | 27875 ft | 553 kts | 93° |
| 2026-05-04 08:04 | -34.47301 | 149.68554 | 27100 ft | 548 kts | 93° |
| 2026-05-04 08:04 | -34.47824 | 149.73116 | 26333 ft | 543 kts | 94° |
| 2026-05-04 08:04 | -34.48352 | 149.77641 | 25611 ft | 538 kts | 94° |
| 2026-05-04 08:04 | -34.48878 | 149.82109 | 24895 ft | 533 kts | 94° |
| 2026-05-04 08:05 | -34.49401 | 149.86549 | 24169 ft | 528 kts | 94° |
| 2026-05-04 08:05 | -34.49655 | 149.90941 | 23418 ft | 516 kts | 82° |
| 2026-05-04 08:05 | -34.49085 | 149.95084 | 22764 ft | 495 kts | 67° |
| 2026-05-04 08:05 | -34.47776 | 149.98865 | 22082 ft | 478 kts | 56° |
| 2026-05-04 08:06 | -34.46222 | 150.02416 | 21289 ft | 472 kts | 55° |
| 2026-05-04 08:06 | -34.44661 | 150.05890 | 20635 ft | 465 kts | 55° |
| 2026-05-04 08:06 | -34.43132 | 150.09307 | 20022 ft | 457 kts | 56° |
| 2026-05-04 08:06 | -34.41633 | 150.12657 | 19410 ft | 450 kts | 56° |
| 2026-05-04 08:08 | -34.31735 | 150.34854 | 15114 ft | 411 kts | 56° |
| 2026-05-04 08:08 | -34.30380 | 150.37883 | 14528 ft | 407 kts | 56° |
| 2026-05-04 08:10 | -34.20145 | 150.60774 | 10546 ft | 345 kts | 56° |
| 2026-05-04 08:11 | -34.19047 | 150.63227 | 10413 ft | 329 kts | 56° |
| 2026-05-04 08:11 | -34.16961 | 150.67889 | 10152 ft | 301 kts | 55° |
| 2026-05-04 08:11 | -34.15981 | 150.70067 | 10038 ft | 290 kts | 54° |
| 2026-05-04 08:12 | -34.15022 | 150.72187 | 9819 ft | 286 kts | 54° |
| 2026-05-04 08:12 | -34.14044 | 150.74331 | 9511 ft | 294 kts | 54° |
| 2026-05-04 08:12 | -34.13059 | 150.76502 | 9183 ft | 295 kts | 55° |
| 2026-05-04 08:12 | -34.12091 | 150.78645 | 8874 ft | 293 kts | 55° |
| 2026-05-04 08:13 | -34.11116 | 150.80807 | 8579 ft | 291 kts | 55° |
| 2026-05-04 08:13 | -34.10145 | 150.82957 | 8281 ft | 290 kts | 55° |
| 2026-05-04 08:13 | -34.09190 | 150.85092 | 7992 ft | 289 kts | 55° |
| 2026-05-04 08:13 | -34.08260 | 150.87155 | 7712 ft | 288 kts | 55° |
| 2026-05-04 08:14 | -34.07309 | 150.89266 | 7416 ft | 286 kts | 55° |
| 2026-05-04 08:14 | -34.06359 | 150.91375 | 7148 ft | 286 kts | 55° |
| 2026-05-04 08:14 | -34.05409 | 150.93480 | 6865 ft | 284 kts | 55° |
| 2026-05-04 08:16 | -34.08295 | 151.07673 | 5465 ft | 300 kts | 154° |
| 2026-05-04 08:16 | -34.10263 | 151.08429 | 5072 ft | 296 kts | 170° |
| 2026-05-04 08:16 | -34.12275 | 151.08923 | 4688 ft | 294 kts | 171° |
| 2026-05-04 08:17 | -34.14280 | 151.09404 | 4256 ft | 293 kts | 170° |
| 2026-05-04 08:17 | -34.16270 | 151.09898 | 3845 ft | 291 kts | 170° |
| 2026-05-04 08:17 | -34.18214 | 151.10520 | 3506 ft | 288 kts | 158° |
| 2026-05-04 08:17 | -34.19837 | 151.11902 | 3133 ft | 285 kts | 130° |
| 2026-05-04 08:19 | -34.17162 | 151.24341 | 2989 ft | 241 kts | 343° |
| 2026-05-04 08:19 | -34.15624 | 151.23584 | 2985 ft | 241 kts | 335° |
| 2026-05-04 08:20 | -34.14078 | 151.22821 | 2983 ft | 233 kts | 340° |
| 2026-05-04 08:20 | -34.12575 | 151.22281 | 2979 ft | 217 kts | 345° |
| 2026-05-04 08:20 | -34.11190 | 151.21911 | 2925 ft | 193 kts | 346° |
| 2026-05-04 08:20 | -34.09936 | 151.21596 | 2754 ft | 175 kts | 346° |
| 2026-05-04 08:21 | -34.08805 | 151.21294 | 2492 ft | 162 kts | 347° |
| 2026-05-04 08:21 | -34.07745 | 151.21014 | 2289 ft | 152 kts | 347° |
| 2026-05-04 08:21 | -34.06730 | 151.20749 | 2079 ft | 147 kts | 347° |
| 2026-05-04 08:21 | -34.05752 | 151.20493 | 1881 ft | 141 kts | 348° |
| 2026-05-04 08:22 | -34.04814 | 151.20248 | 1700 ft | 135 kts | 349° |
| 2026-05-04 08:22 | -34.03945 | 151.20023 | 1516 ft | 125 kts | 348° |
| 2026-05-04 08:24 | -33.98111 | 151.18503 | 363 ft | 122 kts | 351° |
| 2026-05-04 08:24 | -33.97284 | 151.18295 | 216 ft | 122 kts | 351° |
| 2026-05-04 08:24 | -33.96456 | 151.18065 | 93 ft | 124 kts | 351° |
| 2026-05-04 08:24 | -33.95626 | 151.17860 | 35 ft | 109 kts | 347° |
| 2026-05-04 08:25 | -33.95011 | 151.17698 | 34 ft | 72 kts | 348° |
| 2026-05-04 08:25 | -33.94647 | 151.17595 | 36 ft | 38 kts | 342° |
| 2026-05-04 08:25 | -33.94444 | 151.17478 | 35 ft | 24 kts | 322° |
| 2026-05-04 08:25 | -33.94343 | 151.17374 | 36 ft | 19 kts | 317° |
| 2026-05-04 08:26 | -33.94276 | 151.17310 | 35 ft | 0 kts | 336° |
| 2026-05-04 08:27 | -33.94097 | 151.17259 | 35 ft | 16 kts | 348° |
| 2026-05-04 08:28 | -33.93999 | 151.17231 | 35 ft | 12 kts | 336° |
| 2026-05-04 08:28 | -33.93987 | 151.17151 | 36 ft | 11 kts | 263° |
| 2026-05-04 08:28 | -33.93942 | 151.17102 | 36 ft | 10 kts | 342° |
| 2026-05-04 08:28 | -33.93873 | 151.17083 | 36 ft | 8 kts | 347° |
| 2026-05-04 08:29 | -33.93820 | 151.17069 | 36 ft | 4 kts | 348° |
| 2026-05-04 08:29 | -33.93785 | 151.17055 | 36 ft | 5 kts | 323° |
| 2026-05-04 08:29 | -33.93780 | 151.17015 | 36 ft | 6 kts | 254° |
| 2026-05-04 08:31 | -33.93794 | 151.16957 | 36 ft | 0 kts | 254° |